Time,TemperatureF,DewpointF,PressureIn,WindDirection,WindDirectionDegrees,WindSpeedMPH,WindSpeedGustMPH,Humidity,HourlyPrecipIn,Conditions,Clouds,dailyrainin,SoftwareType,DateUTC
2013-03-02 00:00:00,59.2,17.0,17.72,NW,312,0.0,0.0,19,0.00,,CLR,0.00,VWS V14.01,2013-03-02 07:00:00,
2013-03-02 00:01:00,59.2,17.0,17.72,NW,312,0.0,0.0,19,0.00,,CLR,0.00,VWS V14.01,2013-03-02 07:01:00,
2013-03-02 00:02:00,59.2,17.0,17.72,NW,312,0.0,0.0,19,0.00,,CLR,0.00,VWS V14.01,2013-03-02 07:02:00,
2013-03-02 00:03:00,59.2,17.0,17.72,NW,312,0.0,0.0,19,0.00,,CLR,0.00,VWS V14.01,2013-03-02 07:03:00,
2013-03-02 00:04:00,59.2,17.0,17.72,NW,312,0.0,0.0,19,0.00,,CLR,0.00,VWS V14.01,2013-03-02 07:04:00,
2013-03-02 00:05:00,59.2,17.0,17.72,NW,312,0.0,0.0,19,0.00,,CLR,0.00,VWS V14.01,2013-03-02 07:05:00,
2013-03-02 00:06:00,59.2,17.0,17.72,NW,312,0.0,0.0,19,0.00,,CLR,0.00,VWS V14.01,2013-03-02 07:06:00,
2013-03-02 00:07:00,59.0,16.8,17.72,NW,312,0.0,0.0,19,0.00,,CLR,0.00,VWS V14.01,2013-03-02 07:07:00,
2013-03-02 00:08:00,59.0,16.8,17.72,NW,312,0.0,0.0,19,0.00,,CLR,0.00,VWS V14.01,2013-03-02 07:08:00,
2013-03-02 00:09:00,59.0,16.8,17.72,NW,313,0.0,0.0,19,0.00,,CLR,0.00,VWS V14.01,2013-03-02 07:09:00,
2013-03-02 00:10:00,59.0,16.8,17.72,NW,312,0.0,0.0,19,0.00,,CLR,0.00,VWS V14.01,2013-03-02 07:10:00,
2013-03-02 00:11:00,59.0,16.8,17.72,NW,312,0.0,0.0,19,0.00,,CLR,0.00,VWS V14.01,2013-03-02 07:11:00,
2013-03-02 00:12:00,59.0,16.8,17.72,NW,312,0.0,0.0,19,0.00,,CLR,0.00,VWS V14.01,2013-03-02 07:12:00,
2013-03-02 00:13:00,58.8,16.7,17.72,NW,312,0.0,0.0,19,0.00,,CLR,0.00,VWS V14.01,2013-03-02 07:13:00,
2013-03-02 00:14:00,58.8,16.7,17.72,NW,312,0.0,0.0,19,0.00,,CLR,0.00,VWS V14.01,2013-03-02 07:14:00,
2013-03-02 00:15:00,58.8,16.7,17.72,NW,312,0.0,0.0,19,0.00,,CLR,0.00,VWS V14.01,2013-03-02 07:15:00,
2013-03-02 00:16:00,58.8,16.7,17.72,NW,312,0.0,0.0,19,0.00,,CLR,0.00,VWS V14.01,2013-03-02 07:16:00,
2013-03-02 00:17:00,58.8,16.7,17.72,NW,312,0.0,0.0,19,0.00,,CLR,0.00,VWS V14.01,2013-03-02 07:17:00,
2013-03-02 00:18:00,58.8,16.7,17.72,NW,312,0.0,0.0,19,0.00,,CLR,0.00,VWS V14.01,2013-03-02 07:18:00,
2013-03-02 00:19:00,58.8,16.7,17.72,NW,312,0.0,0.0,19,0.00,,CLR,0.00,VWS V14.01,2013-03-02 07:19:00,
2013-03-02 00:20:00,58.8,16.7,17.72,NW,312,0.0,0.0,19,0.00,,CLR,0.00,VWS V14.01,2013-03-02 07:20:00,
2013-03-02 00:21:00,58.8,16.7,17.72,NW,312,0.0,0.0,19,0.00,,CLR,0.00,VWS V14.01,2013-03-02 07:21:00,
2013-03-02 00:22:00,58.8,16.7,17.72,NW,312,0.0,0.0,19,0.00,,CLR,0.00,VWS V14.01,2013-03-02 07:22:00,
2013-03-02 00:23:00,58.8,16.7,17.72,NW,312,0.0,0.0,19,0.00,,CLR,0.00,VWS V14.01,2013-03-02 07:23:00,
2013-03-02 00:24:00,58.8,16.7,17.72,NW,312,0.0,0.0,19,0.00,,CLR,0.00,VWS V14.01,2013-03-02 07:24:00,
2013-03-02 00:25:00,58.8,16.7,17.72,NW,312,0.0,0.0,19,0.00,,CLR,0.00,VWS V14.01,2013-03-02 07:25:00,
2013-03-02 00:26:00,58.8,16.7,17.72,NW,312,0.0,0.0,19,0.00,,CLR,0.00,VWS V14.01,2013-03-02 07:26:00,
2013-03-02 00:27:00,58.8,16.7,17.72,NW,312,0.0,0.0,19,0.00,,CLR,0.00,VWS V14.01,2013-03-02 07:27:00,
2013-03-02 00:28:00,58.8,16.7,17.72,NW,312,0.0,0.0,19,0.00,,CLR,0.00,VWS V14.01,2013-03-02 07:28:00,
2013-03-02 00:29:00,58.8,16.7,17.72,NW,312,0.0,0.0,19,0.00,,CLR,0.00,VWS V14.01,2013-03-02 07:29:00,
2013-03-02 00:30:00,58.8,16.7,17.72,NW,312,0.0,0.0,19,0.00,,CLR,0.00,VWS V14.01,2013-03-02 07:30:00,
2013-03-02 00:31:00,58.5,16.4,17.72,NW,312,0.0,0.0,19,0.00,,CLR,0.00,VWS V14.01,2013-03-02 07:31:00,
2013-03-02 00:32:00,58.5,16.4,17.72,NW,312,0.0,0.0,19,0.00,,CLR,0.00,VWS V14.01,2013-03-02 07:32:00,
2013-03-02 00:33:00,58.5,16.4,17.72,NW,312,0.0,0.0,19,0.00,,CLR,0.00,VWS V14.01,2013-03-02 07:33:00,
2013-03-02 00:34:00,58.5,16.4,17.72,NW,312,0.0,0.0,19,0.00,,CLR,0.00,VWS V14.01,2013-03-02 07:34:00,
2013-03-02 00:35:00,58.5,16.4,17.72,NW,312,0.0,0.0,19,0.00,,CLR,0.00,VWS V14.01,2013-03-02 07:35:00,
2013-03-02 00:36:00,58.5,16.4,17.72,NW,312,0.0,0.0,19,0.00,,CLR,0.00,VWS V14.01,2013-03-02 07:36:00,
2013-03-02 00:37:00,58.3,16.2,17.72,NW,312,0.0,0.0,19,0.00,,CLR,0.00,VWS V14.01,2013-03-02 07:37:00,
2013-03-02 00:38:00,58.3,16.2,17.72,NW,312,0.0,0.0,19,0.00,,CLR,0.00,VWS V14.01,2013-03-02 07:38:00,
2013-03-02 00:39:00,58.3,16.2,17.72,NW,312,0.0,0.0,19,0.00,,CLR,0.00,VWS V14.01,2013-03-02 07:39:00,
2013-03-02 00:40:00,58.3,16.2,17.72,NW,312,0.0,0.0,19,0.00,,CLR,0.00,VWS V14.01,2013-03-02 07:40:00,
2013-03-02 00:41:00,58.3,16.2,17.72,NW,312,0.0,0.0,19,0.00,,CLR,0.00,VWS V14.01,2013-03-02 07:41:00,
2013-03-02 00:42:00,58.3,16.2,17.72,NW,312,0.0,0.0,19,0.00,,CLR,0.00,VWS V14.01,2013-03-02 07:42:00,
2013-03-02 00:43:00,57.9,15.9,17.72,NW,312,0.0,0.0,19,0.00,,CLR,0.00,VWS V14.01,2013-03-02 07:43:00,
2013-03-02 00:44:00,57.9,15.9,17.72,NW,312,0.0,0.0,19,0.00,,CLR,0.00,VWS V14.01,2013-03-02 07:44:00,
2013-03-02 00:45:00,57.9,15.9,17.72,NW,312,0.0,0.0,19,0.00,,CLR,0.00,VWS V14.01,2013-03-02 07:45:00,
2013-03-02 00:46:00,57.9,15.9,17.72,NW,312,0.0,0.0,19,0.00,,CLR,0.00,VWS V14.01,2013-03-02 07:46:00,
2013-03-02 00:47:00,57.9,15.9,17.72,NW,312,0.0,0.0,19,0.00,,CLR,0.00,VWS V14.01,2013-03-02 07:47:00,
2013-03-02 00:48:00,57.9,15.9,17.72,NW,312,0.0,0.0,19,0.00,,CLR,0.00,VWS V14.01,2013-03-02 07:48:00,
2013-03-02 00:49:00,57.9,15.9,17.72,NW,312,0.0,0.0,19,0.00,,CLR,0.00,VWS V14.01,2013-03-02 07:49:00,
2013-03-02 00:50:00,57.9,15.9,17.72,NW,312,0.0,0.0,19,0.00,,CLR,0.00,VWS V14.01,2013-03-02 07:50:00,
2013-03-02 00:51:00,57.9,15.9,17.72,NW,312,0.0,0.0,19,0.00,,CLR,0.00,VWS V14.01,2013-03-02 07:51:00,
2013-03-02 00:52:00,57.9,15.9,17.72,NW,312,0.0,0.0,19,0.00,,CLR,0.00,VWS V14.01,2013-03-02 07:52:00,
2013-03-02 00:53:00,57.9,15.9,17.72,NW,312,0.0,0.0,19,0.00,,CLR,0.00,VWS V14.01,2013-03-02 07:53:00,
2013-03-02 00:54:00,57.9,15.9,17.72,NW,312,0.0,0.0,19,0.00,,CLR,0.00,VWS V14.01,2013-03-02 07:54:00,
2013-03-02 00:55:00,57.9,15.9,17.72,NW,312,0.0,0.0,19,0.00,,CLR,0.00,VWS V14.01,2013-03-02 07:55:00,
2013-03-02 00:56:00,57.9,15.9,17.72,NW,312,0.0,0.0,19,0.00,,CLR,0.00,VWS V14.01,2013-03-02 07:56:00,
2013-03-02 00:57:00,57.9,15.9,17.72,NW,312,0.0,0.0,19,0.00,,CLR,0.00,VWS V14.01,2013-03-02 07:57:00,
2013-03-02 00:58:00,57.9,15.9,17.72,NW,313,0.0,0.0,19,0.00,,CLR,0.00,VWS V14.01,2013-03-02 07:58:00,
2013-03-02 00:59:00,57.7,15.8,17.72,NW,313,0.0,0.0,19,0.00,,CLR,0.00,VWS V14.01,2013-03-02 07:59:00,
2013-03-02 01:00:00,57.7,15.8,17.72,NW,312,0.0,0.0,19,0.00,,CLR,0.00,VWS V14.01,2013-03-02 08:00:00,
2013-03-02 01:01:00,57.7,15.8,17.72,NW,312,0.0,0.0,19,0.00,,CLR,0.00,VWS V14.01,2013-03-02 08:01:00,
2013-03-02 01:02:00,57.7,15.8,17.72,NW,312,0.0,0.0,19,0.00,,CLR,0.00,VWS V14.01,2013-03-02 08:02:00,
2013-03-02 01:03:00,57.7,15.8,17.72,NW,312,0.0,0.0,19,0.00,,CLR,0.00,VWS V14.01,2013-03-02 08:03:00,
2013-03-02 01:04:00,57.7,15.8,17.72,NW,312,0.0,0.0,19,0.00,,CLR,0.00,VWS V14.01,2013-03-02 08:04:00,
2013-03-02 01:05:00,57.7,15.8,17.72,NW,312,0.0,0.0,19,0.00,,CLR,0.00,VWS V14.01,2013-03-02 08:05:00,
2013-03-02 01:06:00,57.7,15.8,17.72,NW,312,0.0,0.0,19,0.00,,CLR,0.00,VWS V14.01,2013-03-02 08:06:00,
2013-03-02 01:07:00,57.7,15.8,17.72,NW,312,0.0,0.0,19,0.00,,CLR,0.00,VWS V14.01,2013-03-02 08:07:00,
2013-03-02 01:08:00,57.7,15.8,17.72,NW,312,0.0,0.0,19,0.00,,CLR,0.00,VWS V14.01,2013-03-02 08:08:00,
2013-03-02 01:09:00,57.7,15.8,17.72,NW,312,0.0,0.0,19,0.00,,CLR,0.00,VWS V14.01,2013-03-02 08:09:00,
2013-03-02 01:10:00,57.7,15.8,17.72,NW,312,0.0,0.0,19,0.00,,CLR,0.00,VWS V14.01,2013-03-02 08:10:00,
2013-03-02 01:11:00,57.7,15.8,17.72,NW,312,0.0,0.0,19,0.00,,CLR,0.00,VWS V14.01,2013-03-02 08:11:00,
2013-03-02 01:12:00,57.6,15.6,17.72,NW,312,0.0,0.0,19,0.00,,CLR,0.00,VWS V14.01,2013-03-02 08:12:00,
2013-03-02 01:13:00,57.6,15.6,17.72,NW,312,0.0,0.0,19,0.00,,CLR,0.00,VWS V14.01,2013-03-02 08:13:00,
2013-03-02 01:14:00,57.6,15.6,17.72,NW,312,0.0,0.0,19,0.00,,CLR,0.00,VWS V14.01,2013-03-02 08:14:00,
2013-03-02 01:15:00,57.6,15.6,17.72,NW,312,0.0,0.0,19,0.00,,CLR,0.00,VWS V14.01,2013-03-02 08:15:00,
2013-03-02 01:16:00,57.6,15.6,17.72,NW,312,0.0,0.0,19,0.00,,CLR,0.00,VWS V14.01,2013-03-02 08:16:00,
2013-03-02 01:17:00,57.6,15.6,17.72,NW,312,0.0,0.0,19,0.00,,CLR,0.00,VWS V14.01,2013-03-02 08:17:00,
2013-03-02 01:18:00,57.6,15.6,17.72,NW,312,0.0,0.0,19,0.00,,CLR,0.00,VWS V14.01,2013-03-02 08:18:00,
2013-03-02 01:19:00,57.6,15.6,17.72,NW,312,0.0,0.0,19,0.00,,CLR,0.00,VWS V14.01,2013-03-02 08:19:00,
2013-03-02 01:20:00,57.6,15.6,17.72,NW,312,0.0,0.0,19,0.00,,CLR,0.00,VWS V14.01,2013-03-02 08:20:00,
2013-03-02 01:21:00,57.6,15.6,17.72,NW,312,0.0,0.0,19,0.00,,CLR,0.00,VWS V14.01,2013-03-02 08:21:00,
2013-03-02 01:22:00,57.6,15.6,17.72,NW,312,0.0,0.0,19,0.00,,CLR,0.00,VWS V14.01,2013-03-02 08:22:00,
2013-03-02 01:23:00,57.4,18.9,17.72,NW,312,0.0,0.0,22,0.00,,CLR,0.00,VWS V14.01,2013-03-02 08:23:00,
2013-03-02 01:24:00,57.4,18.9,17.72,NW,312,0.0,0.0,22,0.00,,CLR,0.00,VWS V14.01,2013-03-02 08:24:00,
2013-03-02 01:25:00,57.4,18.9,17.72,NW,312,0.0,0.0,22,0.00,,CLR,0.00,VWS V14.01,2013-03-02 08:25:00,
2013-03-02 01:26:00,57.4,18.9,17.72,NW,312,0.0,0.0,22,0.00,,CLR,0.00,VWS V14.01,2013-03-02 08:26:00,
2013-03-02 01:27:00,57.4,18.9,17.72,NW,312,0.0,0.0,22,0.00,,CLR,0.00,VWS V14.01,2013-03-02 08:27:00,
2013-03-02 01:28:00,57.4,18.9,17.72,NW,312,0.0,0.0,22,0.00,,CLR,0.00,VWS V14.01,2013-03-02 08:28:00,
2013-03-02 01:29:00,57.4,18.9,17.72,NW,312,0.0,0.0,22,0.00,,CLR,0.00,VWS V14.01,2013-03-02 08:29:00,
2013-03-02 01:30:00,57.4,18.9,17.72,NW,312,0.0,0.0,22,0.00,,CLR,0.00,VWS V14.01,2013-03-02 08:30:00,
2013-03-02 01:31:00,57.4,18.9,17.72,NW,312,0.0,0.0,22,0.00,,CLR,0.00,VWS V14.01,2013-03-02 08:31:00,
2013-03-02 01:32:00,57.4,18.9,17.72,NW,312,0.0,0.0,22,0.00,,CLR,0.00,VWS V14.01,2013-03-02 08:32:00,
2013-03-02 01:33:00,57.4,18.9,17.72,NW,312,0.0,0.0,22,0.00,,CLR,0.00,VWS V14.01,2013-03-02 08:33:00,
2013-03-02 01:34:00,57.4,18.9,17.72,NW,312,0.0,0.0,22,0.00,,CLR,0.00,VWS V14.01,2013-03-02 08:34:00,
2013-03-02 01:35:00,57.4,18.9,17.72,NW,312,0.0,0.0,22,0.00,,CLR,0.00,VWS V14.01,2013-03-02 08:35:00,
2013-03-02 01:36:00,57.4,18.9,17.72,NW,312,0.0,0.0,22,0.00,,CLR,0.00,VWS V14.01,2013-03-02 08:36:00,
2013-03-02 01:37:00,57.4,18.9,17.72,NW,312,0.0,0.0,22,0.00,,CLR,0.00,VWS V14.01,2013-03-02 08:37:00,
2013-03-02 01:38:00,57.4,18.9,17.72,NW,312,0.0,0.0,22,0.00,,CLR,0.00,VWS V14.01,2013-03-02 08:38:00,
2013-03-02 01:39:00,57.4,18.9,17.72,NW,312,0.0,0.0,22,0.00,,CLR,0.00,VWS V14.01,2013-03-02 08:39:00,
2013-03-02 01:40:00,57.2,18.7,17.72,NW,312,0.0,0.0,22,0.00,,CLR,0.00,VWS V14.01,2013-03-02 08:40:00,
2013-03-02 01:41:00,57.2,18.7,17.72,NW,312,0.0,0.0,22,0.00,,CLR,0.00,VWS V14.01,2013-03-02 08:41:00,
2013-03-02 01:42:00,57.2,18.7,17.72,NW,312,0.0,0.0,22,0.00,,CLR,0.00,VWS V14.01,2013-03-02 08:42:00,
2013-03-02 01:43:00,57.2,18.7,17.72,NW,312,0.0,0.0,22,0.00,,CLR,0.00,VWS V14.01,2013-03-02 08:43:00,
2013-03-02 01:44:00,57.2,18.7,17.72,NW,312,0.0,0.0,22,0.00,,CLR,0.00,VWS V14.01,2013-03-02 08:44:00,
2013-03-02 01:45:00,57.2,18.7,17.72,NW,312,0.0,0.0,22,0.00,,CLR,0.00,VWS V14.01,2013-03-02 08:45:00,
2013-03-02 01:46:00,57.2,18.7,17.72,NW,312,0.0,0.0,22,0.00,,CLR,0.00,VWS V14.01,2013-03-02 08:46:00,
2013-03-02 01:47:00,57.2,18.7,17.72,NW,312,0.0,0.0,22,0.00,,CLR,0.00,VWS V14.01,2013-03-02 08:47:00,
2013-03-02 01:48:00,57.2,18.7,17.72,NW,312,0.0,0.0,22,0.00,,CLR,0.00,VWS V14.01,2013-03-02 08:48:00,
2013-03-02 01:49:00,57.0,18.6,17.72,NW,312,0.0,0.0,22,0.00,,CLR,0.00,VWS V14.01,2013-03-02 08:49:00,
2013-03-02 01:50:00,57.0,18.6,17.72,NW,312,0.0,0.0,22,0.00,,CLR,0.00,VWS V14.01,2013-03-02 08:50:00,
2013-03-02 01:51:00,57.0,18.6,17.72,NW,312,0.0,0.0,22,0.00,,CLR,0.00,VWS V14.01,2013-03-02 08:51:00,
2013-03-02 01:52:00,57.0,18.6,17.72,NW,312,0.0,0.0,22,0.00,,CLR,0.00,VWS V14.01,2013-03-02 08:52:00,
2013-03-02 01:53:00,57.0,18.6,17.72,NW,312,0.0,0.0,22,0.00,,CLR,0.00,VWS V14.01,2013-03-02 08:53:00,
2013-03-02 01:54:00,57.0,18.6,17.72,NW,312,0.0,0.0,22,0.00,,CLR,0.00,VWS V14.01,2013-03-02 08:54:00,
2013-03-02 01:55:00,57.0,18.6,17.72,NW,312,0.0,0.0,22,0.00,,CLR,0.00,VWS V14.01,2013-03-02 08:55:00,
2013-03-02 01:56:00,57.0,18.6,17.72,NW,312,0.0,0.0,22,0.00,,CLR,0.00,VWS V14.01,2013-03-02 08:56:00,
2013-03-02 01:57:00,57.0,18.6,17.72,NW,312,0.0,0.0,22,0.00,,CLR,0.00,VWS V14.01,2013-03-02 08:57:00,
2013-03-02 01:58:00,57.0,18.6,17.72,NW,312,0.0,0.0,22,0.00,,CLR,0.00,VWS V14.01,2013-03-02 08:58:00,
2013-03-02 01:59:00,57.0,18.6,17.72,NW,312,0.0,0.0,22,0.00,,CLR,0.00,VWS V14.01,2013-03-02 08:59:00,
2013-03-02 02:00:00,57.0,18.6,17.72,NW,312,0.0,0.0,22,0.00,,CLR,0.00,VWS V14.01,2013-03-02 09:00:00,
2013-03-02 02:01:00,57.0,18.6,17.72,NW,312,0.0,0.0,22,0.00,,CLR,0.00,VWS V14.01,2013-03-02 09:01:00,
2013-03-02 02:02:00,57.0,18.6,17.72,NW,312,0.0,0.0,22,0.00,,CLR,0.00,VWS V14.01,2013-03-02 09:02:00,
2013-03-02 02:03:00,56.8,18.4,17.72,NW,312,0.0,0.0,22,0.00,,CLR,0.00,VWS V14.01,2013-03-02 09:03:00,
2013-03-02 02:04:00,56.8,18.4,17.72,NW,312,0.0,0.0,22,0.00,,CLR,0.00,VWS V14.01,2013-03-02 09:04:00,
2013-03-02 02:05:00,56.8,18.4,17.72,NW,312,0.0,0.0,22,0.00,,CLR,0.00,VWS V14.01,2013-03-02 09:05:00,
2013-03-02 02:06:00,57.0,18.6,17.72,NW,312,0.0,0.0,22,0.00,,CLR,0.00,VWS V14.01,2013-03-02 09:06:00,
2013-03-02 02:07:00,57.0,18.6,17.72,NW,312,0.0,0.0,22,0.00,,CLR,0.00,VWS V14.01,2013-03-02 09:07:00,
2013-03-02 02:08:00,57.0,18.6,17.72,NW,312,0.0,0.0,22,0.00,,CLR,0.00,VWS V14.01,2013-03-02 09:08:00,
2013-03-02 02:09:00,56.8,18.4,17.72,NW,312,0.0,0.0,22,0.00,,CLR,0.00,VWS V14.01,2013-03-02 09:09:00,
2013-03-02 02:10:00,56.8,18.4,17.72,NW,312,0.0,0.0,22,0.00,,CLR,0.00,VWS V14.01,2013-03-02 09:10:00,
2013-03-02 02:11:00,56.8,18.4,17.72,NW,312,0.0,0.0,22,0.00,,CLR,0.00,VWS V14.01,2013-03-02 09:11:00,
2013-03-02 02:12:00,56.8,18.4,17.72,NW,312,0.0,0.0,22,0.00,,CLR,0.00,VWS V14.01,2013-03-02 09:12:00,
2013-03-02 02:13:00,56.8,18.4,17.72,NW,312,0.0,0.0,22,0.00,,CLR,0.00,VWS V14.01,2013-03-02 09:13:00,
2013-03-02 02:14:00,56.8,18.4,17.72,NW,312,0.0,0.0,22,0.00,,CLR,0.00,VWS V14.01,2013-03-02 09:14:00,
2013-03-02 02:15:00,56.8,18.4,17.72,NW,312,0.0,0.0,22,0.00,,CLR,0.00,VWS V14.01,2013-03-02 09:15:00,
2013-03-02 02:16:00,56.8,18.4,17.72,NW,312,0.0,0.0,22,0.00,,CLR,0.00,VWS V14.01,2013-03-02 09:16:00,
2013-03-02 02:17:00,56.8,18.4,17.72,NW,312,0.0,0.0,22,0.00,,CLR,0.00,VWS V14.01,2013-03-02 09:17:00,
2013-03-02 02:18:00,56.8,18.4,17.72,NW,312,0.0,0.0,22,0.00,,CLR,0.00,VWS V14.01,2013-03-02 09:18:00,
2013-03-02 02:19:00,56.8,18.4,17.72,NW,312,0.0,0.0,22,0.00,,CLR,0.00,VWS V14.01,2013-03-02 09:19:00,
2013-03-02 02:20:00,56.8,18.4,17.72,NW,312,0.0,0.0,22,0.00,,CLR,0.00,VWS V14.01,2013-03-02 09:20:00,
2013-03-02 02:21:00,56.8,18.4,17.72,NW,312,0.0,0.0,22,0.00,,CLR,0.00,VWS V14.01,2013-03-02 09:21:00,
2013-03-02 02:22:00,56.8,18.4,17.72,NW,312,0.0,0.0,22,0.00,,CLR,0.00,VWS V14.01,2013-03-02 09:22:00,
2013-03-02 02:23:00,56.8,18.4,17.72,NW,312,0.0,0.0,22,0.00,,CLR,0.00,VWS V14.01,2013-03-02 09:23:00,
2013-03-02 02:24:00,56.8,18.4,17.72,NW,312,0.0,0.0,22,0.00,,CLR,0.00,VWS V14.01,2013-03-02 09:24:00,
2013-03-02 02:25:00,56.7,18.3,17.72,NW,312,0.0,0.0,22,0.00,,CLR,0.00,VWS V14.01,2013-03-02 09:25:00,
2013-03-02 02:26:00,56.7,18.3,17.72,NW,312,0.0,0.0,22,0.00,,CLR,0.00,VWS V14.01,2013-03-02 09:26:00,
2013-03-02 02:27:00,56.7,18.3,17.72,NW,312,0.0,0.0,22,0.00,,CLR,0.00,VWS V14.01,2013-03-02 09:27:00,
2013-03-02 02:28:00,56.7,18.3,17.72,NW,312,0.0,0.0,22,0.00,,CLR,0.00,VWS V14.01,2013-03-02 09:28:00,
2013-03-02 02:29:00,56.7,18.3,17.72,NW,312,0.0,0.0,22,0.00,,CLR,0.00,VWS V14.01,2013-03-02 09:29:00,
2013-03-02 02:30:00,56.7,18.3,17.72,NW,312,0.0,0.0,22,0.00,,CLR,0.00,VWS V14.01,2013-03-02 09:30:00,
2013-03-02 02:31:00,56.7,18.3,17.72,NW,313,0.0,0.0,22,0.00,,CLR,0.00,VWS V14.01,2013-03-02 09:31:00,
2013-03-02 02:32:00,56.7,18.3,17.72,NW,313,0.0,0.0,22,0.00,,CLR,0.00,VWS V14.01,2013-03-02 09:32:00,
2013-03-02 02:33:00,56.7,18.3,17.72,NW,313,0.0,0.0,22,0.00,,CLR,0.00,VWS V14.01,2013-03-02 09:33:00,
2013-03-02 02:34:00,56.7,18.3,17.72,NW,313,0.0,0.0,22,0.00,,CLR,0.00,VWS V14.01,2013-03-02 09:34:00,
2013-03-02 02:35:00,56.7,18.3,17.72,NW,312,0.0,0.0,22,0.00,,CLR,0.00,VWS V14.01,2013-03-02 09:35:00,
2013-03-02 02:36:00,56.7,18.3,17.72,NW,312,0.0,0.0,22,0.00,,CLR,0.00,VWS V14.01,2013-03-02 09:36:00,
2013-03-02 02:37:00,56.7,18.3,17.72,NW,312,0.0,0.0,22,0.00,,CLR,0.00,VWS V14.01,2013-03-02 09:37:00,
2013-03-02 02:38:00,56.7,18.3,17.72,NW,312,0.0,0.0,22,0.00,,CLR,0.00,VWS V14.01,2013-03-02 09:38:00,
2013-03-02 02:39:00,56.5,18.1,17.72,NW,313,0.0,0.0,22,0.00,,CLR,0.00,VWS V14.01,2013-03-02 09:39:00,
2013-03-02 02:40:00,56.5,18.1,17.72,NW,312,0.0,0.0,22,0.00,,CLR,0.00,VWS V14.01,2013-03-02 09:40:00,
2013-03-02 02:41:00,56.5,18.1,17.72,NW,312,0.0,0.0,22,0.00,,CLR,0.00,VWS V14.01,2013-03-02 09:41:00,
2013-03-02 02:42:00,56.3,18.0,17.72,NW,312,0.0,0.0,22,0.00,,CLR,0.00,VWS V14.01,2013-03-02 09:42:00,
2013-03-02 02:43:00,56.3,18.0,17.72,NW,312,0.0,0.0,22,0.00,,CLR,0.00,VWS V14.01,2013-03-02 09:43:00,
2013-03-02 02:44:00,56.3,18.0,17.72,NW,312,0.0,0.0,22,0.00,,CLR,0.00,VWS V14.01,2013-03-02 09:44:00,
2013-03-02 02:45:00,56.3,18.0,17.72,NW,312,0.0,0.0,22,0.00,,CLR,0.00,VWS V14.01,2013-03-02 09:45:00,
2013-03-02 02:46:00,56.3,18.0,17.72,NW,312,0.0,0.0,22,0.00,,CLR,0.00,VWS V14.01,2013-03-02 09:46:00,
2013-03-02 02:47:00,56.3,18.0,17.72,NW,312,0.0,0.0,22,0.00,,CLR,0.00,VWS V14.01,2013-03-02 09:47:00,
2013-03-02 02:48:00,56.3,18.0,17.72,NW,312,0.0,0.0,22,0.00,,CLR,0.00,VWS V14.01,2013-03-02 09:48:00,
2013-03-02 02:49:00,56.3,18.0,17.72,NW,312,0.0,0.0,22,0.00,,CLR,0.00,VWS V14.01,2013-03-02 09:49:00,
2013-03-02 02:50:00,56.3,18.0,17.72,NW,312,0.0,0.0,22,0.00,,CLR,0.00,VWS V14.01,2013-03-02 09:50:00,
2013-03-02 02:51:00,56.3,18.0,17.72,NW,312,0.0,0.0,22,0.00,,CLR,0.00,VWS V14.01,2013-03-02 09:51:00,
2013-03-02 02:52:00,56.3,18.0,17.72,NW,312,0.0,0.0,22,0.00,,CLR,0.00,VWS V14.01,2013-03-02 09:52:00,
2013-03-02 02:53:00,56.3,18.0,17.72,NW,312,0.0,0.0,22,0.00,,CLR,0.00,VWS V14.01,2013-03-02 09:53:00,
2013-03-02 02:54:00,56.3,18.0,17.72,NW,312,0.0,0.0,22,0.00,,CLR,0.00,VWS V14.01,2013-03-02 09:54:00,
2013-03-02 02:55:00,56.3,18.0,17.72,NW,312,0.0,0.0,22,0.00,,CLR,0.00,VWS V14.01,2013-03-02 09:55:00,
2013-03-02 02:56:00,55.9,17.7,17.72,NW,312,0.0,0.0,22,0.00,,CLR,0.00,VWS V14.01,2013-03-02 09:56:00,
2013-03-02 02:57:00,55.8,17.5,17.72,NW,312,0.0,0.0,22,0.00,,CLR,0.00,VWS V14.01,2013-03-02 09:57:00,
2013-03-02 02:58:00,55.8,17.5,17.72,NW,312,0.0,0.0,22,0.00,,CLR,0.00,VWS V14.01,2013-03-02 09:58:00,
2013-03-02 02:59:00,55.8,17.5,17.72,NW,312,0.0,0.0,22,0.00,,CLR,0.00,VWS V14.01,2013-03-02 09:59:00,
2013-03-02 03:00:00,55.8,17.5,17.72,NW,312,0.0,0.0,22,0.00,,CLR,0.00,VWS V14.01,2013-03-02 10:00:00,
2013-03-02 03:01:00,55.8,17.5,17.72,NW,312,0.0,0.0,22,0.00,,CLR,0.00,VWS V14.01,2013-03-02 10:01:00,
2013-03-02 03:02:00,55.8,17.5,17.72,NW,312,0.0,0.0,22,0.00,,CLR,0.00,VWS V14.01,2013-03-02 10:02:00,
2013-03-02 03:03:00,55.4,17.2,17.72,NW,312,0.0,0.0,22,0.00,,CLR,0.00,VWS V14.01,2013-03-02 10:03:00,
2013-03-02 03:04:00,55.4,17.2,17.72,NW,312,0.0,0.0,22,0.00,,CLR,0.00,VWS V14.01,2013-03-02 10:04:00,
2013-03-02 03:05:00,55.4,17.2,17.72,NW,312,0.0,0.0,22,0.00,,CLR,0.00,VWS V14.01,2013-03-02 10:05:00,
2013-03-02 03:06:00,55.2,18.1,17.72,NW,312,0.0,0.0,23,0.00,,CLR,0.00,VWS V14.01,2013-03-02 10:06:00,
2013-03-02 03:07:00,55.2,18.1,17.72,NW,312,0.0,0.0,23,0.00,,CLR,0.00,VWS V14.01,2013-03-02 10:07:00,
2013-03-02 03:08:00,55.2,18.1,17.72,NW,312,0.0,0.0,23,0.00,,CLR,0.00,VWS V14.01,2013-03-02 10:08:00,
2013-03-02 03:09:00,55.2,18.1,17.72,NW,312,0.0,0.0,23,0.00,,CLR,0.00,VWS V14.01,2013-03-02 10:09:00,
2013-03-02 03:10:00,55.2,18.1,17.72,NW,312,0.0,0.0,23,0.00,,CLR,0.00,VWS V14.01,2013-03-02 10:10:00,
2013-03-02 03:11:00,55.2,18.1,17.72,NW,312,0.0,0.0,23,0.00,,CLR,0.00,VWS V14.01,2013-03-02 10:11:00,
2013-03-02 03:12:00,55.2,18.1,17.72,NW,312,0.0,0.0,23,0.00,,CLR,0.00,VWS V14.01,2013-03-02 10:12:00,
2013-03-02 03:13:00,55.2,18.1,17.72,NW,312,0.0,0.0,23,0.00,,CLR,0.00,VWS V14.01,2013-03-02 10:13:00,
2013-03-02 03:14:00,55.2,18.1,17.72,NW,312,0.0,0.0,23,0.00,,CLR,0.00,VWS V14.01,2013-03-02 10:14:00,
2013-03-02 03:15:00,55.2,18.1,17.72,NW,312,0.0,0.0,23,0.00,,CLR,0.00,VWS V14.01,2013-03-02 10:15:00,
2013-03-02 03:16:00,54.9,17.8,17.72,NW,312,0.0,0.0,23,0.00,,CLR,0.00,VWS V14.01,2013-03-02 10:16:00,
2013-03-02 03:17:00,54.9,17.8,17.72,NW,313,0.0,0.0,23,0.00,,CLR,0.00,VWS V14.01,2013-03-02 10:17:00,
2013-03-02 03:18:00,54.9,17.8,17.72,NW,312,0.0,0.0,23,0.00,,CLR,0.00,VWS V14.01,2013-03-02 10:18:00,
2013-03-02 03:19:00,54.9,17.8,17.72,NW,312,0.0,0.0,23,0.00,,CLR,0.00,VWS V14.01,2013-03-02 10:19:00,
2013-03-02 03:20:00,54.9,17.8,17.72,NW,312,0.0,0.0,23,0.00,,CLR,0.00,VWS V14.01,2013-03-02 10:20:00,
2013-03-02 03:21:00,54.9,17.8,17.72,NW,312,0.0,0.0,23,0.00,,CLR,0.00,VWS V14.01,2013-03-02 10:21:00,
2013-03-02 03:22:00,54.9,17.8,17.72,NW,312,0.0,0.0,23,0.00,,CLR,0.00,VWS V14.01,2013-03-02 10:22:00,
2013-03-02 03:23:00,54.9,17.8,17.72,NW,312,0.0,0.0,23,0.00,,CLR,0.00,VWS V14.01,2013-03-02 10:23:00,
2013-03-02 03:24:00,54.9,17.8,17.72,NW,312,0.0,0.0,23,0.00,,CLR,0.00,VWS V14.01,2013-03-02 10:24:00,
2013-03-02 03:25:00,54.9,17.8,17.72,NW,312,0.0,0.0,23,0.00,,CLR,0.00,VWS V14.01,2013-03-02 10:25:00,
2013-03-02 03:26:00,54.9,17.8,17.72,NW,312,0.0,0.0,23,0.00,,CLR,0.00,VWS V14.01,2013-03-02 10:26:00,
2013-03-02 03:27:00,54.9,17.8,17.72,NW,312,0.0,0.0,23,0.00,,CLR,0.00,VWS V14.01,2013-03-02 10:27:00,
2013-03-02 03:28:00,54.9,17.8,17.72,NW,312,0.0,0.0,23,0.00,,CLR,0.00,VWS V14.01,2013-03-02 10:28:00,
2013-03-02 03:29:00,54.9,17.8,17.72,NW,312,0.0,0.0,23,0.00,,CLR,0.00,VWS V14.01,2013-03-02 10:29:00,
2013-03-02 03:30:00,54.7,19.6,17.72,NW,312,0.0,0.0,25,0.00,,CLR,0.00,VWS V14.01,2013-03-02 10:30:00,
2013-03-02 03:31:00,54.9,19.7,17.72,NW,312,0.0,0.0,25,0.00,,CLR,0.00,VWS V14.01,2013-03-02 10:31:00,
2013-03-02 03:32:00,54.9,19.7,17.72,NW,312,0.0,0.0,25,0.00,,CLR,0.00,VWS V14.01,2013-03-02 10:32:00,
2013-03-02 03:33:00,54.9,19.7,17.72,NW,312,0.0,0.0,25,0.00,,CLR,0.00,VWS V14.01,2013-03-02 10:33:00,
2013-03-02 03:34:00,54.9,19.7,17.72,NW,312,0.0,0.0,25,0.00,,CLR,0.00,VWS V14.01,2013-03-02 10:34:00,
2013-03-02 03:35:00,54.9,19.7,17.72,NW,313,0.0,0.0,25,0.00,,CLR,0.00,VWS V14.01,2013-03-02 10:35:00,
2013-03-02 03:36:00,54.9,19.7,17.72,NW,313,0.0,0.0,25,0.00,,CLR,0.00,VWS V14.01,2013-03-02 10:36:00,
2013-03-02 03:37:00,54.9,19.7,17.72,NW,312,0.0,0.0,25,0.00,,CLR,0.00,VWS V14.01,2013-03-02 10:37:00,
2013-03-02 03:38:00,54.9,19.7,17.72,NW,312,0.0,0.0,25,0.00,,CLR,0.00,VWS V14.01,2013-03-02 10:38:00,
2013-03-02 03:39:00,54.9,19.7,17.72,NW,312,0.0,0.0,25,0.00,,CLR,0.00,VWS V14.01,2013-03-02 10:39:00,
2013-03-02 03:40:00,54.9,19.7,17.72,NW,312,0.0,0.0,25,0.00,,CLR,0.00,VWS V14.01,2013-03-02 10:40:00,
2013-03-02 03:41:00,54.9,19.7,17.72,NW,312,0.0,0.0,25,0.00,,CLR,0.00,VWS V14.01,2013-03-02 10:41:00,
2013-03-02 03:42:00,54.9,19.7,17.72,NW,312,0.0,0.0,25,0.00,,CLR,0.00,VWS V14.01,2013-03-02 10:42:00,
2013-03-02 03:43:00,54.7,19.6,17.72,NW,312,0.0,0.0,25,0.00,,CLR,0.00,VWS V14.01,2013-03-02 10:43:00,
2013-03-02 03:44:00,54.7,19.6,17.72,NW,312,0.0,0.0,25,0.00,,CLR,0.00,VWS V14.01,2013-03-02 10:44:00,
2013-03-02 03:45:00,54.7,19.6,17.72,NW,312,0.0,0.0,25,0.00,,CLR,0.00,VWS V14.01,2013-03-02 10:45:00,
2013-03-02 03:46:00,54.7,19.6,17.72,NW,312,0.0,0.0,25,0.00,,CLR,0.00,VWS V14.01,2013-03-02 10:46:00,
2013-03-02 03:47:00,54.7,19.6,17.72,NW,312,0.0,0.0,25,0.00,,CLR,0.00,VWS V14.01,2013-03-02 10:47:00,
2013-03-02 03:48:00,54.5,19.4,17.72,NW,312,0.0,0.0,25,0.00,,CLR,0.00,VWS V14.01,2013-03-02 10:48:00,
2013-03-02 03:49:00,54.5,19.4,17.72,NW,312,0.0,0.0,25,0.00,,CLR,0.00,VWS V14.01,2013-03-02 10:49:00,
2013-03-02 03:50:00,54.5,19.4,17.72,NW,312,0.0,0.0,25,0.00,,CLR,0.00,VWS V14.01,2013-03-02 10:50:00,
2013-03-02 03:51:00,54.5,19.4,17.72,NW,312,0.0,0.0,25,0.00,,CLR,0.00,VWS V14.01,2013-03-02 10:51:00,
2013-03-02 03:52:00,54.5,19.4,17.72,NW,312,0.0,0.0,25,0.00,,CLR,0.00,VWS V14.01,2013-03-02 10:52:00,
2013-03-02 03:53:00,54.5,19.4,17.72,NW,312,0.0,0.0,25,0.00,,CLR,0.00,VWS V14.01,2013-03-02 10:53:00,
2013-03-02 03:54:00,54.5,19.4,17.72,NW,312,0.0,0.0,25,0.00,,CLR,0.00,VWS V14.01,2013-03-02 10:54:00,
2013-03-02 03:55:00,54.5,19.4,17.72,NW,312,0.0,0.0,25,0.00,,CLR,0.00,VWS V14.01,2013-03-02 10:55:00,
2013-03-02 03:56:00,54.3,19.3,17.72,NW,312,0.0,0.0,25,0.00,,CLR,0.00,VWS V14.01,2013-03-02 10:56:00,
2013-03-02 03:57:00,54.3,19.3,17.72,NW,312,0.0,0.0,25,0.00,,CLR,0.00,VWS V14.01,2013-03-02 10:57:00,
2013-03-02 03:58:00,54.3,19.3,17.72,NW,312,0.0,0.0,25,0.00,,CLR,0.00,VWS V14.01,2013-03-02 10:58:00,
2013-03-02 03:59:00,54.3,19.3,17.72,NW,312,0.0,0.0,25,0.00,,CLR,0.00,VWS V14.01,2013-03-02 10:59:00,
2013-03-02 04:00:00,54.3,19.3,17.72,NW,312,0.0,0.0,25,0.00,,CLR,0.00,VWS V14.01,2013-03-02 11:00:00,
2013-03-02 04:01:00,54.3,19.3,17.72,NW,312,0.0,0.0,25,0.00,,CLR,0.00,VWS V14.01,2013-03-02 11:01:00,
2013-03-02 04:02:00,54.3,19.3,17.72,NW,312,0.0,0.0,25,0.00,,CLR,0.00,VWS V14.01,2013-03-02 11:02:00,
2013-03-02 04:03:00,54.3,19.3,17.72,NW,312,0.0,0.0,25,0.00,,CLR,0.00,VWS V14.01,2013-03-02 11:03:00,
2013-03-02 04:04:00,54.3,19.3,17.72,NW,313,0.0,0.0,25,0.00,,CLR,0.00,VWS V14.01,2013-03-02 11:04:00,
2013-03-02 04:05:00,53.8,19.7,17.72,NW,312,0.0,0.0,26,0.00,,CLR,0.00,VWS V14.01,2013-03-02 11:05:00,
2013-03-02 04:06:00,53.8,19.7,17.72,NW,312,0.0,0.0,26,0.00,,CLR,0.00,VWS V14.01,2013-03-02 11:06:00,
2013-03-02 04:07:00,53.6,19.6,17.72,NW,312,0.0,0.0,26,0.00,,CLR,0.00,VWS V14.01,2013-03-02 11:07:00,
2013-03-02 04:08:00,53.6,19.6,17.72,NW,312,0.0,0.0,26,0.00,,CLR,0.00,VWS V14.01,2013-03-02 11:08:00,
2013-03-02 04:09:00,53.6,19.6,17.72,NW,312,0.0,0.0,26,0.00,,CLR,0.00,VWS V14.01,2013-03-02 11:09:00,
2013-03-02 04:10:00,53.6,19.6,17.72,NW,312,0.0,0.0,26,0.00,,CLR,0.00,VWS V14.01,2013-03-02 11:10:00,
2013-03-02 04:11:00,53.6,19.6,17.72,NW,312,0.0,0.0,26,0.00,,CLR,0.00,VWS V14.01,2013-03-02 11:11:00,
2013-03-02 04:12:00,53.6,19.6,17.72,NW,312,0.0,0.0,26,0.00,,CLR,0.00,VWS V14.01,2013-03-02 11:12:00,
2013-03-02 04:13:00,53.6,19.6,17.72,NW,312,0.0,0.0,26,0.00,,CLR,0.00,VWS V14.01,2013-03-02 11:13:00,
2013-03-02 04:14:00,53.2,19.3,17.72,NW,312,0.0,0.0,26,0.00,,CLR,0.00,VWS V14.01,2013-03-02 11:14:00,
2013-03-02 04:15:00,53.2,19.3,17.72,NW,312,0.0,0.0,26,0.00,,CLR,0.00,VWS V14.01,2013-03-02 11:15:00,
2013-03-02 04:16:00,53.2,19.3,17.72,NW,312,0.0,0.0,26,0.00,,CLR,0.00,VWS V14.01,2013-03-02 11:16:00,
2013-03-02 04:17:00,53.1,19.1,17.72,NW,313,0.0,0.0,26,0.00,,CLR,0.00,VWS V14.01,2013-03-02 11:17:00,
2013-03-02 04:18:00,53.1,19.1,17.72,NW,313,0.0,0.0,26,0.00,,CLR,0.00,VWS V14.01,2013-03-02 11:18:00,
2013-03-02 04:19:00,53.1,19.1,17.72,NW,313,0.0,0.0,26,0.00,,CLR,0.00,VWS V14.01,2013-03-02 11:19:00,
2013-03-02 04:20:00,53.1,19.1,17.72,NW,312,0.0,0.0,26,0.00,,CLR,0.00,VWS V14.01,2013-03-02 11:20:00,
2013-03-02 04:21:00,53.1,19.1,17.72,NW,312,0.0,0.0,26,0.00,,CLR,0.00,VWS V14.01,2013-03-02 11:21:00,
2013-03-02 04:22:00,53.1,19.1,17.72,NW,312,0.0,0.0,26,0.00,,CLR,0.00,VWS V14.01,2013-03-02 11:22:00,
2013-03-02 04:23:00,53.1,19.1,17.72,NW,312,0.0,0.0,26,0.00,,CLR,0.00,VWS V14.01,2013-03-02 11:23:00,
2013-03-02 04:24:00,52.9,19.0,17.72,NW,312,0.0,0.0,26,0.00,,CLR,0.00,VWS V14.01,2013-03-02 11:24:00,
2013-03-02 04:25:00,52.9,19.0,17.72,NW,312,0.0,0.0,26,0.00,,CLR,0.00,VWS V14.01,2013-03-02 11:25:00,
2013-03-02 04:26:00,52.9,19.0,17.72,NW,312,0.0,0.0,26,0.00,,CLR,0.00,VWS V14.01,2013-03-02 11:26:00,
2013-03-02 04:27:00,52.9,19.0,17.72,NW,312,0.0,0.0,26,0.00,,CLR,0.00,VWS V14.01,2013-03-02 11:27:00,
2013-03-02 04:28:00,52.9,19.0,17.72,NW,312,0.0,0.0,26,0.00,,CLR,0.00,VWS V14.01,2013-03-02 11:28:00,
2013-03-02 04:29:00,52.9,19.0,17.72,NW,312,0.0,0.0,26,0.00,,CLR,0.00,VWS V14.01,2013-03-02 11:29:00,
2013-03-02 04:30:00,52.7,18.8,17.72,NW,312,0.0,0.0,26,0.00,,CLR,0.00,VWS V14.01,2013-03-02 11:30:00,
2013-03-02 04:31:00,52.7,18.8,17.72,NW,312,0.0,0.0,26,0.00,,CLR,0.00,VWS V14.01,2013-03-02 11:31:00,
2013-03-02 04:32:00,52.7,18.8,17.72,NW,312,0.0,0.0,26,0.00,,CLR,0.00,VWS V14.01,2013-03-02 11:32:00,
2013-03-02 04:33:00,52.7,18.8,17.72,NW,312,0.0,0.0,26,0.00,,CLR,0.00,VWS V14.01,2013-03-02 11:33:00,
2013-03-02 04:34:00,52.7,18.8,17.72,NW,312,0.0,0.0,26,0.00,,CLR,0.00,VWS V14.01,2013-03-02 11:34:00,
2013-03-02 04:35:00,52.7,18.8,17.72,NW,312,0.0,0.0,26,0.00,,CLR,0.00,VWS V14.01,2013-03-02 11:35:00,
2013-03-02 04:36:00,52.7,18.8,17.72,NW,312,0.0,0.0,26,0.00,,CLR,0.00,VWS V14.01,2013-03-02 11:36:00,
2013-03-02 04:37:00,52.7,18.8,17.72,NW,312,0.0,0.0,26,0.00,,CLR,0.00,VWS V14.01,2013-03-02 11:37:00,
2013-03-02 04:38:00,52.7,18.8,17.72,NW,312,0.0,0.0,26,0.00,,CLR,0.00,VWS V14.01,2013-03-02 11:38:00,
2013-03-02 04:39:00,52.3,19.4,17.72,NW,312,0.0,0.0,27,0.00,,CLR,0.00,VWS V14.01,2013-03-02 11:39:00,
2013-03-02 04:40:00,52.3,19.4,17.72,NW,312,0.0,0.0,27,0.00,,CLR,0.00,VWS V14.01,2013-03-02 11:40:00,
2013-03-02 04:41:00,52.3,19.4,17.72,NW,312,0.0,0.0,27,0.00,,CLR,0.00,VWS V14.01,2013-03-02 11:41:00,
2013-03-02 04:42:00,52.3,19.4,17.72,NW,312,0.0,0.0,27,0.00,,CLR,0.00,VWS V14.01,2013-03-02 11:42:00,
2013-03-02 04:43:00,52.3,19.4,17.72,NW,312,0.0,0.0,27,0.00,,CLR,0.00,VWS V14.01,2013-03-02 11:43:00,
2013-03-02 04:44:00,52.3,19.4,17.72,NW,312,0.0,0.0,27,0.00,,CLR,0.00,VWS V14.01,2013-03-02 11:44:00,
2013-03-02 04:45:00,52.3,19.4,17.72,NW,312,0.0,0.0,27,0.00,,CLR,0.00,VWS V14.01,2013-03-02 11:45:00,
2013-03-02 04:46:00,52.3,19.4,17.72,NW,312,0.0,0.0,27,0.00,,CLR,0.00,VWS V14.01,2013-03-02 11:46:00,
2013-03-02 04:47:00,52.3,19.4,17.72,NW,312,0.0,0.0,27,0.00,,CLR,0.00,VWS V14.01,2013-03-02 11:47:00,
2013-03-02 04:48:00,52.3,19.4,17.72,NW,312,0.0,0.0,27,0.00,,CLR,0.00,VWS V14.01,2013-03-02 11:48:00,
2013-03-02 04:49:00,52.3,19.4,17.72,NW,312,0.0,0.0,27,0.00,,CLR,0.00,VWS V14.01,2013-03-02 11:49:00,
2013-03-02 04:50:00,52.3,19.4,17.72,NW,313,0.0,0.0,27,0.00,,CLR,0.00,VWS V14.01,2013-03-02 11:50:00,
2013-03-02 04:51:00,52.3,19.4,17.72,NW,312,0.0,0.0,27,0.00,,CLR,0.00,VWS V14.01,2013-03-02 11:51:00,
2013-03-02 04:52:00,52.3,19.4,17.72,NW,312,0.0,0.0,27,0.00,,CLR,0.00,VWS V14.01,2013-03-02 11:52:00,
2013-03-02 04:53:00,52.3,19.4,17.72,NW,312,0.0,0.0,27,0.00,,CLR,0.00,VWS V14.01,2013-03-02 11:53:00,
2013-03-02 04:54:00,52.3,19.4,17.72,NW,312,0.0,0.0,27,0.00,,CLR,0.00,VWS V14.01,2013-03-02 11:54:00,
2013-03-02 04:55:00,52.3,19.4,17.72,NW,312,0.0,0.0,27,0.00,,CLR,0.00,VWS V14.01,2013-03-02 11:55:00,
2013-03-02 04:56:00,52.3,19.4,17.72,NW,312,0.0,0.0,27,0.00,,CLR,0.00,VWS V14.01,2013-03-02 11:56:00,
2013-03-02 04:57:00,52.3,19.4,17.72,NW,312,0.0,0.0,27,0.00,,CLR,0.00,VWS V14.01,2013-03-02 11:57:00,
2013-03-02 04:58:00,52.3,19.4,17.72,NW,313,0.0,0.0,27,0.00,,CLR,0.00,VWS V14.01,2013-03-02 11:58:00,
2013-03-02 04:59:00,52.3,19.4,17.72,NW,313,0.0,0.0,27,0.00,,CLR,0.00,VWS V14.01,2013-03-02 11:59:00,
2013-03-02 05:00:00,52.3,19.4,17.72,NW,313,0.0,0.0,27,0.00,,CLR,0.00,VWS V14.01,2013-03-02 12:00:00,
2013-03-02 05:01:00,52.3,19.4,17.72,NW,313,0.0,0.0,27,0.00,,CLR,0.00,VWS V14.01,2013-03-02 12:01:00,
2013-03-02 05:02:00,52.3,19.4,17.72,NW,312,0.0,0.0,27,0.00,,CLR,0.00,VWS V14.01,2013-03-02 12:02:00,
2013-03-02 05:03:00,52.3,19.4,17.72,NW,312,0.0,0.0,27,0.00,,CLR,0.00,VWS V14.01,2013-03-02 12:03:00,
2013-03-02 05:04:00,52.3,19.4,17.72,NW,312,0.0,0.0,27,0.00,,CLR,0.00,VWS V14.01,2013-03-02 12:04:00,
2013-03-02 05:05:00,52.3,19.4,17.72,NW,312,0.0,0.0,27,0.00,,CLR,0.00,VWS V14.01,2013-03-02 12:05:00,
2013-03-02 05:06:00,52.3,19.4,17.72,NW,312,0.0,0.0,27,0.00,,CLR,0.00,VWS V14.01,2013-03-02 12:06:00,
2013-03-02 05:07:00,52.3,19.4,17.72,NW,312,0.0,0.0,27,0.00,,CLR,0.00,VWS V14.01,2013-03-02 12:07:00,
2013-03-02 05:08:00,52.3,19.4,17.72,NW,312,0.0,0.0,27,0.00,,CLR,0.00,VWS V14.01,2013-03-02 12:08:00,
2013-03-02 05:09:00,52.3,19.4,17.72,NW,312,0.0,0.0,27,0.00,,CLR,0.00,VWS V14.01,2013-03-02 12:09:00,
2013-03-02 05:10:00,52.3,19.4,17.72,NW,312,0.0,0.0,27,0.00,,CLR,0.00,VWS V14.01,2013-03-02 12:10:00,
2013-03-02 05:11:00,52.2,19.2,17.72,NW,312,0.0,0.0,27,0.00,,CLR,0.00,VWS V14.01,2013-03-02 12:11:00,
2013-03-02 05:12:00,52.2,19.2,17.72,NW,312,0.0,0.0,27,0.00,,CLR,0.00,VWS V14.01,2013-03-02 12:12:00,
2013-03-02 05:13:00,52.2,19.2,17.72,NW,312,0.0,0.0,27,0.00,,CLR,0.00,VWS V14.01,2013-03-02 12:13:00,
2013-03-02 05:14:00,52.2,19.2,17.72,NW,312,0.0,0.0,27,0.00,,CLR,0.00,VWS V14.01,2013-03-02 12:14:00,
2013-03-02 05:15:00,52.2,19.2,17.72,NW,312,0.0,0.0,27,0.00,,CLR,0.00,VWS V14.01,2013-03-02 12:15:00,
2013-03-02 05:16:00,52.2,19.2,17.72,NW,312,0.0,0.0,27,0.00,,CLR,0.00,VWS V14.01,2013-03-02 12:16:00,
2013-03-02 05:17:00,52.2,19.2,17.72,NW,312,0.0,0.0,27,0.00,,CLR,0.00,VWS V14.01,2013-03-02 12:17:00,
2013-03-02 05:18:00,52.2,19.2,17.72,NW,312,0.0,0.0,27,0.00,,CLR,0.00,VWS V14.01,2013-03-02 12:18:00,
2013-03-02 05:19:00,52.2,19.2,17.72,NW,313,0.0,0.0,27,0.00,,CLR,0.00,VWS V14.01,2013-03-02 12:19:00,
2013-03-02 05:20:00,52.2,19.2,17.72,NW,312,0.0,0.0,27,0.00,,CLR,0.00,VWS V14.01,2013-03-02 12:20:00,
2013-03-02 05:21:00,52.2,19.2,17.72,NW,312,0.0,0.0,27,0.00,,CLR,0.00,VWS V14.01,2013-03-02 12:21:00,
2013-03-02 05:22:00,52.2,19.2,17.72,NW,312,0.0,0.0,27,0.00,,CLR,0.00,VWS V14.01,2013-03-02 12:22:00,
2013-03-02 05:23:00,52.2,19.2,17.72,NW,312,0.0,0.0,27,0.00,,CLR,0.00,VWS V14.01,2013-03-02 12:23:00,
2013-03-02 05:24:00,52.2,19.2,17.72,NW,312,0.0,0.0,27,0.00,,CLR,0.00,VWS V14.01,2013-03-02 12:24:00,
2013-03-02 05:25:00,52.2,19.2,17.72,NW,312,0.0,0.0,27,0.00,,CLR,0.00,VWS V14.01,2013-03-02 12:25:00,
2013-03-02 05:26:00,52.2,19.2,17.72,NW,312,0.0,0.0,27,0.00,,CLR,0.00,VWS V14.01,2013-03-02 12:26:00,
2013-03-02 05:27:00,52.2,19.2,17.72,NW,312,0.0,0.0,27,0.00,,CLR,0.00,VWS V14.01,2013-03-02 12:27:00,
2013-03-02 05:28:00,52.2,19.2,17.72,NW,312,0.0,0.0,27,0.00,,CLR,0.00,VWS V14.01,2013-03-02 12:28:00,
2013-03-02 05:29:00,52.2,19.2,17.72,NW,313,0.0,0.0,27,0.00,,CLR,0.00,VWS V14.01,2013-03-02 12:29:00,
2013-03-02 05:30:00,52.2,19.2,17.72,NW,312,0.0,0.0,27,0.00,,CLR,0.00,VWS V14.01,2013-03-02 12:30:00,
2013-03-02 05:31:00,52.2,19.2,17.72,NW,312,0.0,0.0,27,0.00,,CLR,0.00,VWS V14.01,2013-03-02 12:31:00,
2013-03-02 05:32:00,52.2,19.2,17.72,NW,312,0.0,0.0,27,0.00,,CLR,0.00,VWS V14.01,2013-03-02 12:32:00,
2013-03-02 05:33:00,52.2,19.2,17.72,NW,312,0.0,0.0,27,0.00,,CLR,0.00,VWS V14.01,2013-03-02 12:33:00,
2013-03-02 05:34:00,52.2,19.2,17.72,NW,312,0.0,0.0,27,0.00,,CLR,0.00,VWS V14.01,2013-03-02 12:34:00,
2013-03-02 05:35:00,52.2,19.2,17.72,NW,312,0.0,0.0,27,0.00,,CLR,0.00,VWS V14.01,2013-03-02 12:35:00,
2013-03-02 05:36:00,52.2,19.2,17.72,NW,312,0.0,0.0,27,0.00,,CLR,0.00,VWS V14.01,2013-03-02 12:36:00,
2013-03-02 05:37:00,52.2,19.2,17.72,NW,312,0.0,0.0,27,0.00,,CLR,0.00,VWS V14.01,2013-03-02 12:37:00,
2013-03-02 05:38:00,52.2,19.2,17.72,NW,312,0.0,0.0,27,0.00,,CLR,0.00,VWS V14.01,2013-03-02 12:38:00,
2013-03-02 05:39:00,52.2,19.2,17.72,NW,312,0.0,0.0,27,0.00,,CLR,0.00,VWS V14.01,2013-03-02 12:39:00,
2013-03-02 05:40:00,52.2,19.2,17.72,NW,312,0.0,0.0,27,0.00,,CLR,0.00,VWS V14.01,2013-03-02 12:40:00,
2013-03-02 05:41:00,52.2,19.2,17.72,NW,312,0.0,0.0,27,0.00,,CLR,0.00,VWS V14.01,2013-03-02 12:41:00,
2013-03-02 05:42:00,52.2,19.2,17.72,NW,312,0.0,0.0,27,0.00,,CLR,0.00,VWS V14.01,2013-03-02 12:42:00,
2013-03-02 05:43:00,52.2,19.2,17.72,NW,312,0.0,0.0,27,0.00,,CLR,0.00,VWS V14.01,2013-03-02 12:43:00,
2013-03-02 05:44:00,52.2,19.2,17.72,NW,312,0.0,0.0,27,0.00,,CLR,0.00,VWS V14.01,2013-03-02 12:44:00,
2013-03-02 05:45:00,52.2,19.2,17.72,NW,312,0.0,0.0,27,0.00,,CLR,0.00,VWS V14.01,2013-03-02 12:45:00,
2013-03-02 05:46:00,52.2,19.2,17.72,NW,313,0.0,0.0,27,0.00,,CLR,0.00,VWS V14.01,2013-03-02 12:46:00,
2013-03-02 05:47:00,52.2,19.2,17.72,NW,312,0.0,0.0,27,0.00,,CLR,0.00,VWS V14.01,2013-03-02 12:47:00,
2013-03-02 05:48:00,52.2,19.2,17.72,NW,312,0.0,0.0,27,0.00,,CLR,0.00,VWS V14.01,2013-03-02 12:48:00,
2013-03-02 05:49:00,52.2,19.2,17.72,NW,312,0.0,0.0,27,0.00,,CLR,0.00,VWS V14.01,2013-03-02 12:49:00,
2013-03-02 05:50:00,52.2,19.2,17.72,NW,313,0.0,0.0,27,0.00,,CLR,0.00,VWS V14.01,2013-03-02 12:50:00,
2013-03-02 05:51:00,52.2,19.2,17.72,NW,313,0.0,0.0,27,0.00,,CLR,0.00,VWS V14.01,2013-03-02 12:51:00,
2013-03-02 05:52:00,52.2,19.2,17.72,NW,313,0.0,0.0,27,0.00,,CLR,0.00,VWS V14.01,2013-03-02 12:52:00,
2013-03-02 05:53:00,52.2,19.2,17.72,NW,312,0.0,0.0,27,0.00,,CLR,0.00,VWS V14.01,2013-03-02 12:53:00,
2013-03-02 05:54:00,52.2,19.2,17.72,NW,312,0.0,0.0,27,0.00,,CLR,0.00,VWS V14.01,2013-03-02 12:54:00,
2013-03-02 05:55:00,52.2,19.2,17.72,NW,312,0.0,0.0,27,0.00,,CLR,0.00,VWS V14.01,2013-03-02 12:55:00,
2013-03-02 05:56:00,52.2,19.2,17.72,NW,312,0.0,0.0,27,0.00,,CLR,0.00,VWS V14.01,2013-03-02 12:56:00,
2013-03-02 05:57:00,52.3,19.4,17.72,NW,312,0.0,0.0,27,0.00,,CLR,0.00,VWS V14.01,2013-03-02 12:57:00,
2013-03-02 05:58:00,52.3,19.4,17.72,NW,313,0.0,0.0,27,0.00,,CLR,0.00,VWS V14.01,2013-03-02 12:58:00,
2013-03-02 05:59:00,52.3,19.4,17.72,NW,313,0.0,0.0,27,0.00,,CLR,0.00,VWS V14.01,2013-03-02 12:59:00,
2013-03-02 06:00:00,52.3,19.4,17.72,NW,313,0.0,0.0,27,0.00,,CLR,0.00,VWS V14.01,2013-03-02 13:00:00,
2013-03-02 06:01:00,52.3,19.4,17.72,NW,313,0.0,0.0,27,0.00,,CLR,0.00,VWS V14.01,2013-03-02 13:01:00,
2013-03-02 06:02:00,52.3,19.4,17.72,NW,313,0.0,0.0,27,0.00,,CLR,0.00,VWS V14.01,2013-03-02 13:02:00,
2013-03-02 06:03:00,52.3,19.4,17.72,NW,313,0.0,0.0,27,0.00,,CLR,0.00,VWS V14.01,2013-03-02 13:03:00,
2013-03-02 06:04:00,52.2,19.2,17.72,NW,312,0.0,0.0,27,0.00,,CLR,0.00,VWS V14.01,2013-03-02 13:04:00,
2013-03-02 06:05:00,52.2,19.2,17.72,NW,312,0.0,0.0,27,0.00,,CLR,0.00,VWS V14.01,2013-03-02 13:05:00,
2013-03-02 06:06:00,52.2,19.2,17.72,NW,312,0.0,0.0,27,0.00,,CLR,0.00,VWS V14.01,2013-03-02 13:06:00,
2013-03-02 06:07:00,52.2,19.2,17.72,NW,312,0.0,0.0,27,0.00,,CLR,0.00,VWS V14.01,2013-03-02 13:07:00,
2013-03-02 06:08:00,52.2,19.2,17.72,NW,312,0.0,0.0,27,0.00,,CLR,0.00,VWS V14.01,2013-03-02 13:08:00,
2013-03-02 06:09:00,52.2,19.2,17.72,NW,312,0.0,0.0,27,0.00,,CLR,0.00,VWS V14.01,2013-03-02 13:09:00,
2013-03-02 06:10:00,52.2,19.2,17.72,NW,312,0.0,0.0,27,0.00,,CLR,0.00,VWS V14.01,2013-03-02 13:10:00,
2013-03-02 06:11:00,52.2,19.2,17.72,NW,312,0.0,0.0,27,0.00,,CLR,0.00,VWS V14.01,2013-03-02 13:11:00,
2013-03-02 06:12:00,52.2,19.2,17.72,NW,312,0.0,0.0,27,0.00,,CLR,0.00,VWS V14.01,2013-03-02 13:12:00,
2013-03-02 06:13:00,52.2,19.2,17.72,NW,312,0.0,0.0,27,0.00,,CLR,0.00,VWS V14.01,2013-03-02 13:13:00,
2013-03-02 06:14:00,52.2,19.2,17.72,NW,312,0.0,0.0,27,0.00,,CLR,0.00,VWS V14.01,2013-03-02 13:14:00,
2013-03-02 06:15:00,52.2,19.2,17.72,NW,312,0.0,0.0,27,0.00,,CLR,0.00,VWS V14.01,2013-03-02 13:15:00,
2013-03-02 06:16:00,52.2,19.2,17.72,NW,312,0.0,0.0,27,0.00,,CLR,0.00,VWS V14.01,2013-03-02 13:16:00,
2013-03-02 06:17:00,52.2,19.2,17.72,NW,312,0.0,0.0,27,0.00,,CLR,0.00,VWS V14.01,2013-03-02 13:17:00,
2013-03-02 06:18:00,52.2,19.2,17.72,NW,312,0.0,0.0,27,0.00,,CLR,0.00,VWS V14.01,2013-03-02 13:18:00,
2013-03-02 06:19:00,52.2,19.2,17.72,NW,312,0.0,0.0,27,0.00,,CLR,0.00,VWS V14.01,2013-03-02 13:19:00,
2013-03-02 06:20:00,52.2,19.2,17.72,NW,312,0.0,0.0,27,0.00,,CLR,0.00,VWS V14.01,2013-03-02 13:20:00,
2013-03-02 06:21:00,52.2,19.2,17.72,NW,312,0.0,0.0,27,0.00,,CLR,0.00,VWS V14.01,2013-03-02 13:21:00,
2013-03-02 06:22:00,52.2,19.2,17.72,NW,312,0.0,0.0,27,0.00,,CLR,0.00,VWS V14.01,2013-03-02 13:22:00,
2013-03-02 06:23:00,52.2,19.2,17.72,NW,312,0.0,0.0,27,0.00,,CLR,0.00,VWS V14.01,2013-03-02 13:23:00,
2013-03-02 06:24:00,52.2,19.2,17.72,NW,312,0.0,0.0,27,0.00,,CLR,0.00,VWS V14.01,2013-03-02 13:24:00,
2013-03-02 06:25:00,52.2,19.2,17.72,NW,312,0.0,0.0,27,0.00,,CLR,0.00,VWS V14.01,2013-03-02 13:25:00,
2013-03-02 06:26:00,52.2,19.2,17.72,NW,313,0.0,0.0,27,0.00,,CLR,0.00,VWS V14.01,2013-03-02 13:26:00,
2013-03-02 06:27:00,52.2,19.2,17.72,NW,313,0.0,0.0,27,0.00,,CLR,0.00,VWS V14.01,2013-03-02 13:27:00,
2013-03-02 06:28:00,51.8,18.9,17.72,NW,313,0.0,0.0,27,0.00,,CLR,0.00,VWS V14.01,2013-03-02 13:28:00,
2013-03-02 06:29:00,51.8,18.9,17.72,NW,313,0.0,0.0,27,0.00,,CLR,0.00,VWS V14.01,2013-03-02 13:29:00,
2013-03-02 06:30:00,51.8,18.9,17.72,NW,313,0.0,0.0,27,0.00,,CLR,0.00,VWS V14.01,2013-03-02 13:30:00,
2013-03-02 06:31:00,51.8,18.9,17.72,NW,312,0.0,0.0,27,0.00,,CLR,0.00,VWS V14.01,2013-03-02 13:31:00,
2013-03-02 06:32:00,51.6,19.6,17.72,NW,312,0.0,0.0,28,0.00,,CLR,0.00,VWS V14.01,2013-03-02 13:32:00,
2013-03-02 06:33:00,51.6,19.6,17.72,NW,312,0.0,0.0,28,0.00,,CLR,0.00,VWS V14.01,2013-03-02 13:33:00,
2013-03-02 06:34:00,51.4,19.4,17.72,NW,312,0.0,0.0,28,0.00,,CLR,0.00,VWS V14.01,2013-03-02 13:34:00,
2013-03-02 06:35:00,51.4,19.4,17.72,NW,312,0.0,0.0,28,0.00,,CLR,0.00,VWS V14.01,2013-03-02 13:35:00,
2013-03-02 06:36:00,51.4,19.4,17.72,NW,312,0.0,0.0,28,0.00,,CLR,0.00,VWS V14.01,2013-03-02 13:36:00,
2013-03-02 06:37:00,51.4,19.4,17.72,NW,312,0.0,0.0,28,0.00,,CLR,0.00,VWS V14.01,2013-03-02 13:37:00,
2013-03-02 06:38:00,51.4,19.4,17.72,NW,312,0.0,0.0,28,0.00,,CLR,0.00,VWS V14.01,2013-03-02 13:38:00,
2013-03-02 06:39:00,51.1,19.1,17.72,NW,312,0.0,0.0,28,0.00,,CLR,0.00,VWS V14.01,2013-03-02 13:39:00,
2013-03-02 06:40:00,51.1,19.1,17.72,NW,312,0.0,0.0,28,0.00,,CLR,0.00,VWS V14.01,2013-03-02 13:40:00,
2013-03-02 06:41:00,51.1,19.1,17.72,NW,312,0.0,0.0,28,0.00,,CLR,0.00,VWS V14.01,2013-03-02 13:41:00,
2013-03-02 06:42:00,51.1,19.1,17.72,NW,312,0.0,0.0,28,0.00,,CLR,0.00,VWS V14.01,2013-03-02 13:42:00,
2013-03-02 06:43:00,51.1,19.1,17.72,NW,312,0.0,0.0,28,0.00,,CLR,0.00,VWS V14.01,2013-03-02 13:43:00,
2013-03-02 06:44:00,51.1,19.1,17.72,NW,312,0.0,0.0,28,0.00,,CLR,0.00,VWS V14.01,2013-03-02 13:44:00,
2013-03-02 06:45:00,50.7,18.8,17.72,NW,312,0.0,0.0,28,0.00,,CLR,0.00,VWS V14.01,2013-03-02 13:45:00,
2013-03-02 06:46:00,50.7,18.8,17.72,NW,313,0.0,0.0,28,0.00,,CLR,0.00,VWS V14.01,2013-03-02 13:46:00,
2013-03-02 06:47:00,50.7,18.8,17.72,NW,313,0.0,0.0,28,0.00,,CLR,0.00,VWS V14.01,2013-03-02 13:47:00,
2013-03-02 06:48:00,50.7,18.8,17.72,NW,313,0.0,0.0,28,0.00,,CLR,0.00,VWS V14.01,2013-03-02 13:48:00,
2013-03-02 06:49:00,50.4,19.3,17.72,NW,313,0.0,0.0,29,0.00,,CLR,0.00,VWS V14.01,2013-03-02 13:49:00,
2013-03-02 06:50:00,50.4,19.3,17.72,NW,313,0.0,0.0,29,0.00,,CLR,0.00,VWS V14.01,2013-03-02 13:50:00,
2013-03-02 06:51:00,50.4,19.3,17.72,NW,312,0.0,0.0,29,0.00,,CLR,0.00,VWS V14.01,2013-03-02 13:51:00,
2013-03-02 06:52:00,50.4,19.3,17.72,NW,312,0.0,0.0,29,0.00,,CLR,0.00,VWS V14.01,2013-03-02 13:52:00,
2013-03-02 06:53:00,50.4,19.3,17.72,NW,312,0.0,0.0,29,0.00,,CLR,0.00,VWS V14.01,2013-03-02 13:53:00,
2013-03-02 06:54:00,50.4,19.3,17.72,NW,312,0.0,0.0,29,0.00,,CLR,0.00,VWS V14.01,2013-03-02 13:54:00,
2013-03-02 06:55:00,50.4,19.3,17.72,NW,312,0.0,0.0,29,0.00,,CLR,0.00,VWS V14.01,2013-03-02 13:55:00,
2013-03-02 06:56:00,50.4,19.3,17.72,NW,312,0.0,0.0,29,0.00,,CLR,0.00,VWS V14.01,2013-03-02 13:56:00,
2013-03-02 06:57:00,50.4,20.1,17.72,NW,312,0.0,0.0,30,0.00,,CLR,0.00,VWS V14.01,2013-03-02 13:57:00,
2013-03-02 06:58:00,50.4,20.1,17.72,NW,312,0.0,0.0,30,0.00,,CLR,0.00,VWS V14.01,2013-03-02 13:58:00,
2013-03-02 06:59:00,50.4,20.1,17.72,NW,312,0.0,0.0,30,0.00,,CLR,0.00,VWS V14.01,2013-03-02 13:59:00,
2013-03-02 07:00:00,50.4,20.1,17.72,NW,312,0.0,0.0,30,0.00,,CLR,0.00,VWS V14.01,2013-03-02 14:00:00,
2013-03-02 07:01:00,50.4,20.1,17.72,NW,312,0.0,0.0,30,0.00,,CLR,0.00,VWS V14.01,2013-03-02 14:01:00,
2013-03-02 07:02:00,50.4,20.1,17.72,NW,312,0.0,0.0,30,0.00,,CLR,0.00,VWS V14.01,2013-03-02 14:02:00,
2013-03-02 07:03:00,50.4,20.1,17.72,NW,312,0.0,0.0,30,0.00,,CLR,0.00,VWS V14.01,2013-03-02 14:03:00,
2013-03-02 07:04:00,50.4,20.1,17.72,NW,312,0.0,0.0,30,0.00,,CLR,0.00,VWS V14.01,2013-03-02 14:04:00,
2013-03-02 07:05:00,50.4,20.1,17.72,NW,312,0.0,0.0,30,0.00,,CLR,0.00,VWS V14.01,2013-03-02 14:05:00,
2013-03-02 07:06:00,50.4,20.1,17.72,NW,312,0.0,0.0,30,0.00,,CLR,0.00,VWS V14.01,2013-03-02 14:06:00,
2013-03-02 07:07:00,50.4,20.1,17.72,NW,312,0.0,0.0,30,0.00,,CLR,0.00,VWS V14.01,2013-03-02 14:07:00,
2013-03-02 07:08:00,50.4,20.1,17.72,NW,312,0.0,0.0,30,0.00,,CLR,0.00,VWS V14.01,2013-03-02 14:08:00,
2013-03-02 07:09:00,50.4,20.1,17.72,NW,312,0.0,0.0,30,0.00,,CLR,0.00,VWS V14.01,2013-03-02 14:09:00,
2013-03-02 07:10:00,50.4,20.1,17.72,NW,312,0.0,0.0,30,0.00,,CLR,0.00,VWS V14.01,2013-03-02 14:10:00,
2013-03-02 07:11:00,50.4,20.1,17.72,NW,313,0.0,0.0,30,0.00,,CLR,0.00,VWS V14.01,2013-03-02 14:11:00,
2013-03-02 07:12:00,50.4,20.1,17.72,NW,313,0.0,0.0,30,0.00,,CLR,0.00,VWS V14.01,2013-03-02 14:12:00,
2013-03-02 07:13:00,50.4,20.1,17.72,NW,313,0.0,0.0,30,0.00,,CLR,0.00,VWS V14.01,2013-03-02 14:13:00,
2013-03-02 07:14:00,50.5,20.3,17.72,NW,313,0.0,0.0,30,0.00,,CLR,0.00,VWS V14.01,2013-03-02 14:14:00,
2013-03-02 07:16:00,50.5,20.3,17.72,NW,313,0.0,0.0,30,0.00,,CLR,0.00,VWS V14.01,2013-03-02 14:16:00,
2013-03-02 07:17:00,50.5,20.3,17.72,NW,313,0.0,0.0,30,0.00,,CLR,0.00,VWS V14.01,2013-03-02 14:17:00,
2013-03-02 07:18:00,50.5,20.3,17.72,NW,313,0.0,0.0,30,0.00,,CLR,0.00,VWS V14.01,2013-03-02 14:18:00,
2013-03-02 07:19:00,50.5,20.3,17.72,NW,312,0.0,0.0,30,0.00,,CLR,0.00,VWS V14.01,2013-03-02 14:19:00,
2013-03-02 07:20:00,50.5,20.3,17.72,NW,312,0.0,0.0,30,0.00,,CLR,0.00,VWS V14.01,2013-03-02 14:20:00,
2013-03-02 07:21:00,50.5,20.3,17.72,NW,312,0.0,0.0,30,0.00,,CLR,0.00,VWS V14.01,2013-03-02 14:21:00,
2013-03-02 07:22:00,50.5,20.3,17.72,NW,313,0.0,0.0,30,0.00,,CLR,0.00,VWS V14.01,2013-03-02 14:22:00,
2013-03-02 07:23:00,50.4,20.9,17.72,NW,313,0.0,0.0,31,0.00,,CLR,0.00,VWS V14.01,2013-03-02 14:23:00,
2013-03-02 07:24:00,50.4,20.9,17.72,NW,312,0.0,0.0,31,0.00,,CLR,0.00,VWS V14.01,2013-03-02 14:24:00,
2013-03-02 07:25:00,50.4,20.9,17.72,NW,312,0.0,0.0,31,0.00,,CLR,0.00,VWS V14.01,2013-03-02 14:25:00,
2013-03-02 07:26:00,50.4,20.9,17.72,NW,312,0.0,0.0,31,0.00,,CLR,0.00,VWS V14.01,2013-03-02 14:26:00,
2013-03-02 07:27:00,50.4,20.9,17.72,NW,312,0.0,0.0,31,0.00,,CLR,0.00,VWS V14.01,2013-03-02 14:27:00,
2013-03-02 07:28:00,50.4,20.9,17.72,NW,312,0.0,0.0,31,0.00,,CLR,0.00,VWS V14.01,2013-03-02 14:28:00,
2013-03-02 07:29:00,50.4,20.9,17.72,NW,312,0.0,0.0,31,0.00,,CLR,0.00,VWS V14.01,2013-03-02 14:29:00,
2013-03-02 07:30:00,50.4,20.9,17.72,NW,312,0.0,0.0,31,0.00,,CLR,0.00,VWS V14.01,2013-03-02 14:30:00,
2013-03-02 07:31:00,50.4,20.9,17.72,NW,312,0.0,0.0,31,0.00,,CLR,0.00,VWS V14.01,2013-03-02 14:31:00,
2013-03-02 07:32:00,50.4,20.9,17.72,NW,312,0.0,0.0,31,0.00,,CLR,0.00,VWS V14.01,2013-03-02 14:32:00,
2013-03-02 07:33:00,50.4,20.9,17.72,NW,312,0.0,0.0,31,0.00,,CLR,0.00,VWS V14.01,2013-03-02 14:33:00,
2013-03-02 07:34:00,50.4,20.9,17.72,NW,312,0.0,0.0,31,0.00,,CLR,0.00,VWS V14.01,2013-03-02 14:34:00,
2013-03-02 07:35:00,50.4,20.9,17.72,NW,312,0.0,0.0,31,0.00,,CLR,0.00,VWS V14.01,2013-03-02 14:35:00,
2013-03-02 07:36:00,50.4,20.9,17.72,NW,312,0.0,0.0,31,0.00,,CLR,0.00,VWS V14.01,2013-03-02 14:36:00,
2013-03-02 07:37:00,50.4,20.9,17.72,NW,312,0.0,0.0,31,0.00,,CLR,0.00,VWS V14.01,2013-03-02 14:37:00,
2013-03-02 07:38:00,51.6,22.0,17.72,NW,312,0.0,0.0,31,0.00,,CLR,0.00,VWS V14.01,2013-03-02 14:38:00,
2013-03-02 07:39:00,51.6,22.0,17.72,NW,312,0.0,0.0,31,0.00,,CLR,0.00,VWS V14.01,2013-03-02 14:39:00,
2013-03-02 07:40:00,51.6,22.0,17.72,NW,312,0.0,0.0,31,0.00,,CLR,0.00,VWS V14.01,2013-03-02 14:40:00,
2013-03-02 07:41:00,52.0,22.3,17.72,NW,312,0.0,0.0,31,0.00,,CLR,0.00,VWS V14.01,2013-03-02 14:41:00,
2013-03-02 07:42:00,52.0,22.3,17.72,NW,312,0.0,0.0,31,0.00,,CLR,0.00,VWS V14.01,2013-03-02 14:42:00,
2013-03-02 07:43:00,52.0,22.3,17.72,NW,312,0.0,0.0,31,0.00,,CLR,0.00,VWS V14.01,2013-03-02 14:43:00,
2013-03-02 07:44:00,52.0,22.3,17.72,NW,312,0.0,0.0,31,0.00,,CLR,0.00,VWS V14.01,2013-03-02 14:44:00,
2013-03-02 07:45:00,52.0,22.3,17.72,NW,312,0.0,0.0,31,0.00,,CLR,0.00,VWS V14.01,2013-03-02 14:45:00,
2013-03-02 07:46:00,52.0,22.3,17.72,NW,312,0.0,0.0,31,0.00,,CLR,0.00,VWS V14.01,2013-03-02 14:46:00,
2013-03-02 07:47:00,52.0,22.3,17.72,NW,312,0.0,0.0,31,0.00,,CLR,0.00,VWS V14.01,2013-03-02 14:47:00,
2013-03-02 07:48:00,52.0,22.3,17.72,NW,312,0.0,0.0,31,0.00,,CLR,0.00,VWS V14.01,2013-03-02 14:48:00,
2013-03-02 07:49:00,53.4,22.8,17.72,NW,312,0.0,0.0,30,0.00,,CLR,0.00,VWS V14.01,2013-03-02 14:49:00,
2013-03-02 07:50:00,53.4,22.8,17.72,NW,312,0.0,0.0,30,0.00,,CLR,0.00,VWS V14.01,2013-03-02 14:50:00,
2013-03-02 07:51:00,53.4,22.8,17.72,NW,312,0.0,0.0,30,0.00,,CLR,0.00,VWS V14.01,2013-03-02 14:51:00,
2013-03-02 07:52:00,53.4,22.8,17.72,NW,312,0.0,0.0,30,0.00,,CLR,0.00,VWS V14.01,2013-03-02 14:52:00,
2013-03-02 07:53:00,53.4,22.8,17.72,NW,312,0.0,0.0,30,0.00,,CLR,0.00,VWS V14.01,2013-03-02 14:53:00,
2013-03-02 07:54:00,53.4,22.8,17.72,NW,312,0.0,0.0,30,0.00,,CLR,0.00,VWS V14.01,2013-03-02 14:54:00,
2013-03-02 07:55:00,53.4,22.8,17.72,NW,312,0.0,0.0,30,0.00,,CLR,0.00,VWS V14.01,2013-03-02 14:55:00,
2013-03-02 07:56:00,53.4,22.8,17.72,NW,312,0.0,0.0,30,0.00,,CLR,0.00,VWS V14.01,2013-03-02 14:56:00,
2013-03-02 07:57:00,53.4,22.8,17.72,NW,312,0.0,0.0,30,0.00,,CLR,0.00,VWS V14.01,2013-03-02 14:57:00,
2013-03-02 07:58:00,53.4,22.8,17.72,NW,312,0.0,0.0,30,0.00,,CLR,0.00,VWS V14.01,2013-03-02 14:58:00,
2013-03-02 07:59:00,55.0,22.5,17.72,NW,313,0.0,0.0,28,0.00,,CLR,0.00,VWS V14.01,2013-03-02 14:59:00,
2013-03-02 08:00:00,55.0,22.5,17.72,NW,313,0.0,0.0,28,0.00,,CLR,0.00,VWS V14.01,2013-03-02 15:00:00,
2013-03-02 08:01:00,55.4,22.0,17.72,NW,313,0.0,0.0,27,0.00,,CLR,0.00,VWS V14.01,2013-03-02 15:01:00,
2013-03-02 08:02:00,55.4,22.0,17.72,NW,313,0.0,0.0,27,0.00,,CLR,0.00,VWS V14.01,2013-03-02 15:02:00,
2013-03-02 08:03:00,55.4,22.0,17.72,NW,313,0.0,0.0,27,0.00,,CLR,0.00,VWS V14.01,2013-03-02 15:03:00,
2013-03-02 08:04:00,55.4,22.0,17.72,NW,312,0.0,0.0,27,0.00,,CLR,0.00,VWS V14.01,2013-03-02 15:04:00,
2013-03-02 08:05:00,55.4,22.0,17.72,NW,312,0.0,0.0,27,0.00,,CLR,0.00,VWS V14.01,2013-03-02 15:05:00,
2013-03-02 08:06:00,55.9,22.5,17.72,NW,312,0.0,0.0,27,0.00,,CLR,0.00,VWS V14.01,2013-03-02 15:06:00,
2013-03-02 08:07:00,55.9,22.5,17.72,NW,312,0.0,0.0,27,0.00,,CLR,0.00,VWS V14.01,2013-03-02 15:07:00,
2013-03-02 08:08:00,55.9,22.5,17.72,NW,313,0.0,0.0,27,0.00,,CLR,0.00,VWS V14.01,2013-03-02 15:08:00,
2013-03-02 08:09:00,55.9,22.5,17.72,NW,312,0.0,0.0,27,0.00,,CLR,0.00,VWS V14.01,2013-03-02 15:09:00,
2013-03-02 08:10:00,55.9,22.5,17.72,NW,312,0.0,0.0,27,0.00,,CLR,0.00,VWS V14.01,2013-03-02 15:10:00,
2013-03-02 08:11:00,55.9,22.5,17.72,NW,312,0.0,0.0,27,0.00,,CLR,0.00,VWS V14.01,2013-03-02 15:11:00,
2013-03-02 08:12:00,55.9,22.5,17.72,NW,312,0.0,0.0,27,0.00,,CLR,0.00,VWS V14.01,2013-03-02 15:12:00,
2013-03-02 08:13:00,55.9,22.5,17.72,NW,312,0.0,0.0,27,0.00,,CLR,0.00,VWS V14.01,2013-03-02 15:13:00,
2013-03-02 08:14:00,56.3,21.9,17.72,NW,312,0.0,0.0,26,0.00,,CLR,0.00,VWS V14.01,2013-03-02 15:14:00,
2013-03-02 08:15:00,56.3,21.9,17.72,NW,312,0.0,0.0,26,0.00,,CLR,0.00,VWS V14.01,2013-03-02 15:15:00,
2013-03-02 08:16:00,56.3,21.9,17.72,NW,312,0.0,0.0,26,0.00,,CLR,0.00,VWS V14.01,2013-03-02 15:16:00,
2013-03-02 08:17:00,56.3,21.9,17.72,NW,312,0.0,0.0,26,0.00,,CLR,0.00,VWS V14.01,2013-03-02 15:17:00,
2013-03-02 08:18:00,56.3,21.9,17.72,NW,312,0.0,0.0,26,0.00,,CLR,0.00,VWS V14.01,2013-03-02 15:18:00,
2013-03-02 08:19:00,56.3,21.9,17.72,NW,312,0.0,0.0,26,0.00,,CLR,0.00,VWS V14.01,2013-03-02 15:19:00,
2013-03-02 08:20:00,56.3,21.9,17.72,NW,312,0.0,0.0,26,0.00,,CLR,0.00,VWS V14.01,2013-03-02 15:20:00,
2013-03-02 08:21:00,56.3,21.9,17.72,NW,312,0.0,0.0,26,0.00,,CLR,0.00,VWS V14.01,2013-03-02 15:21:00,
2013-03-02 08:22:00,56.3,21.9,17.72,NW,312,0.0,0.0,26,0.00,,CLR,0.00,VWS V14.01,2013-03-02 15:22:00,
2013-03-02 08:23:00,56.3,21.9,17.72,NW,312,0.0,0.0,26,0.00,,CLR,0.00,VWS V14.01,2013-03-02 15:23:00,
2013-03-02 08:24:00,56.3,21.9,17.72,NW,312,0.0,0.0,26,0.00,,CLR,0.00,VWS V14.01,2013-03-02 15:24:00,
2013-03-02 08:25:00,57.2,22.6,17.72,NW,313,0.0,0.0,26,0.00,,CLR,0.00,VWS V14.01,2013-03-02 15:25:00,
2013-03-02 08:26:00,57.2,22.6,17.72,NW,313,0.0,0.0,26,0.00,,CLR,0.00,VWS V14.01,2013-03-02 15:26:00,
2013-03-02 08:27:00,57.2,22.6,17.72,NW,313,0.0,0.0,26,0.00,,CLR,0.00,VWS V14.01,2013-03-02 15:27:00,
2013-03-02 08:28:00,57.2,22.6,17.72,NW,313,0.0,0.0,26,0.00,,CLR,0.00,VWS V14.01,2013-03-02 15:28:00,
2013-03-02 08:29:00,57.2,22.6,17.72,NW,312,0.0,0.0,26,0.00,,CLR,0.00,VWS V14.01,2013-03-02 15:29:00,
2013-03-02 08:30:00,57.2,22.6,17.72,NW,313,0.0,0.0,26,0.00,,CLR,0.00,VWS V14.01,2013-03-02 15:30:00,
2013-03-02 08:31:00,57.2,22.6,17.72,NW,313,0.0,0.0,26,0.00,,CLR,0.00,VWS V14.01,2013-03-02 15:31:00,
2013-03-02 08:32:00,57.2,22.6,17.72,NW,312,0.0,0.0,26,0.00,,CLR,0.00,VWS V14.01,2013-03-02 15:32:00,
2013-03-02 08:33:00,57.7,22.2,17.72,NW,312,0.0,0.0,25,0.00,,CLR,0.00,VWS V14.01,2013-03-02 15:33:00,
2013-03-02 08:34:00,57.7,22.2,17.72,NW,312,0.0,0.0,25,0.00,,CLR,0.00,VWS V14.01,2013-03-02 15:34:00,
2013-03-02 08:35:00,57.7,22.2,17.72,NW,312,0.0,0.0,25,0.00,,CLR,0.00,VWS V14.01,2013-03-02 15:35:00,
2013-03-02 08:36:00,58.1,22.5,17.72,NW,312,0.0,0.0,25,0.00,,CLR,0.00,VWS V14.01,2013-03-02 15:36:00,
2013-03-02 08:37:00,58.1,22.5,17.72,NW,312,0.0,0.0,25,0.00,,CLR,0.00,VWS V14.01,2013-03-02 15:37:00,
2013-03-02 08:38:00,58.1,22.5,17.72,NW,312,0.0,0.0,25,0.00,,CLR,0.00,VWS V14.01,2013-03-02 15:38:00,
2013-03-02 08:39:00,58.1,22.5,17.72,NW,313,0.0,0.0,25,0.00,,CLR,0.00,VWS V14.01,2013-03-02 15:39:00,
2013-03-02 08:40:00,58.1,22.5,17.72,NW,313,0.0,0.0,25,0.00,,CLR,0.00,VWS V14.01,2013-03-02 15:40:00,
2013-03-02 08:41:00,58.8,23.1,17.72,NW,312,0.0,0.0,25,0.00,,CLR,0.00,VWS V14.01,2013-03-02 15:41:00,
2013-03-02 08:42:00,58.8,23.1,17.72,NW,312,0.0,0.0,25,0.00,,CLR,0.00,VWS V14.01,2013-03-02 15:42:00,
2013-03-02 08:43:00,59.0,23.2,17.72,NW,312,0.0,0.0,25,0.00,,CLR,0.00,VWS V14.01,2013-03-02 15:43:00,
2013-03-02 08:44:00,59.0,23.2,17.72,NW,312,0.0,0.0,25,0.00,,CLR,0.00,VWS V14.01,2013-03-02 15:44:00,
2013-03-02 08:45:00,59.0,23.2,17.72,NW,312,0.0,0.0,25,0.00,,CLR,0.00,VWS V14.01,2013-03-02 15:45:00,
2013-03-02 08:46:00,59.0,23.2,17.72,NW,312,0.0,0.0,25,0.00,,CLR,0.00,VWS V14.01,2013-03-02 15:46:00,
2013-03-02 08:47:00,59.0,23.2,17.72,NW,312,0.0,0.0,25,0.00,,CLR,0.00,VWS V14.01,2013-03-02 15:47:00,
2013-03-02 08:48:00,59.0,23.2,17.72,NW,312,0.0,0.0,25,0.00,,CLR,0.00,VWS V14.01,2013-03-02 15:48:00,
2013-03-02 08:49:00,59.0,23.2,17.72,NW,312,0.0,0.0,25,0.00,,CLR,0.00,VWS V14.01,2013-03-02 15:49:00,
2013-03-02 08:50:00,59.0,23.2,17.72,NW,312,0.0,0.0,25,0.00,,CLR,0.00,VWS V14.01,2013-03-02 15:50:00,
2013-03-02 08:51:00,59.0,23.2,17.72,NW,312,0.0,0.0,25,0.00,,CLR,0.00,VWS V14.01,2013-03-02 15:51:00,
2013-03-02 08:52:00,59.0,23.2,17.72,NW,312,0.0,0.0,25,0.00,,CLR,0.00,VWS V14.01,2013-03-02 15:52:00,
2013-03-02 08:53:00,59.0,23.2,17.72,NW,313,0.0,0.0,25,0.00,,CLR,0.00,VWS V14.01,2013-03-02 15:53:00,
2013-03-02 08:54:00,59.0,23.2,17.72,NW,313,0.0,0.0,25,0.00,,CLR,0.00,VWS V14.01,2013-03-02 15:54:00,
2013-03-02 08:55:00,59.0,23.2,17.72,NW,312,0.0,0.0,25,0.00,,CLR,0.00,VWS V14.01,2013-03-02 15:55:00,
2013-03-02 08:56:00,59.0,23.2,17.72,NW,312,0.0,0.0,25,0.00,,CLR,0.00,VWS V14.01,2013-03-02 15:56:00,
2013-03-02 08:57:00,59.0,23.2,17.72,NW,312,0.0,0.0,25,0.00,,CLR,0.00,VWS V14.01,2013-03-02 15:57:00,
2013-03-02 08:58:00,61.7,24.6,17.72,NW,312,0.0,0.0,24,0.00,,CLR,0.00,VWS V14.01,2013-03-02 15:58:00,
2013-03-02 08:59:00,61.7,24.6,17.72,NW,312,0.0,0.0,24,0.00,,CLR,0.00,VWS V14.01,2013-03-02 15:59:00,
2013-03-02 09:00:00,61.7,24.6,17.72,NW,312,0.0,0.0,24,0.00,,CLR,0.00,VWS V14.01,2013-03-02 16:00:00,
2013-03-02 09:01:00,61.7,24.6,17.72,NW,312,0.0,0.0,24,0.00,,CLR,0.00,VWS V14.01,2013-03-02 16:01:00,
2013-03-02 09:02:00,61.7,24.6,17.72,NW,312,0.0,0.0,24,0.00,,CLR,0.00,VWS V14.01,2013-03-02 16:02:00,
2013-03-02 09:03:00,61.7,24.6,17.72,NW,312,0.0,0.0,24,0.00,,CLR,0.00,VWS V14.01,2013-03-02 16:03:00,
2013-03-02 09:04:00,62.2,25.0,17.72,NW,312,0.0,0.0,24,0.00,,CLR,0.00,VWS V14.01,2013-03-02 16:04:00,
2013-03-02 09:05:00,62.2,25.0,17.72,NW,312,0.0,0.0,24,0.00,,CLR,0.00,VWS V14.01,2013-03-02 16:05:00,
2013-03-02 09:06:00,62.2,25.0,17.72,NW,312,0.0,0.0,24,0.00,,CLR,0.00,VWS V14.01,2013-03-02 16:06:00,
2013-03-02 09:07:00,62.2,25.0,17.72,NW,312,0.0,0.0,24,0.00,,CLR,0.00,VWS V14.01,2013-03-02 16:07:00,
2013-03-02 09:08:00,62.2,25.0,17.72,NW,312,0.0,0.0,24,0.00,,CLR,0.00,VWS V14.01,2013-03-02 16:08:00,
2013-03-02 09:09:00,62.4,25.2,17.72,NW,312,0.0,0.0,24,0.00,,CLR,0.00,VWS V14.01,2013-03-02 16:09:00,
2013-03-02 09:10:00,62.4,25.2,17.72,NW,312,0.0,0.0,24,0.00,,CLR,0.00,VWS V14.01,2013-03-02 16:10:00,
2013-03-02 09:11:00,62.6,24.3,17.72,NW,312,0.0,0.0,23,0.00,,CLR,0.00,VWS V14.01,2013-03-02 16:11:00,
2013-03-02 09:12:00,62.6,24.3,17.72,NW,313,0.0,0.0,23,0.00,,CLR,0.00,VWS V14.01,2013-03-02 16:12:00,
2013-03-02 09:13:00,62.6,24.3,17.72,NW,312,0.0,0.0,23,0.00,,CLR,0.00,VWS V14.01,2013-03-02 16:13:00,
2013-03-02 09:14:00,62.6,24.3,17.72,NW,312,0.0,0.0,23,0.00,,CLR,0.00,VWS V14.01,2013-03-02 16:14:00,
2013-03-02 09:15:00,62.6,24.3,17.72,NW,312,0.0,0.0,23,0.00,,CLR,0.00,VWS V14.01,2013-03-02 16:15:00,
2013-03-02 09:16:00,62.6,24.3,17.72,NW,312,0.0,0.0,23,0.00,,CLR,0.00,VWS V14.01,2013-03-02 16:16:00,
2013-03-02 09:17:00,62.6,24.3,17.72,NW,312,0.0,0.0,23,0.00,,CLR,0.00,VWS V14.01,2013-03-02 16:17:00,
2013-03-02 09:18:00,62.6,24.3,17.72,NW,312,0.0,0.0,23,0.00,,CLR,0.00,VWS V14.01,2013-03-02 16:18:00,
2013-03-02 09:19:00,62.6,24.3,17.72,NW,312,0.0,0.0,23,0.00,,CLR,0.00,VWS V14.01,2013-03-02 16:19:00,
2013-03-02 09:20:00,62.6,24.3,17.72,NW,312,0.0,0.0,23,0.00,,CLR,0.00,VWS V14.01,2013-03-02 16:20:00,
2013-03-02 09:21:00,62.6,24.3,17.72,NW,312,0.0,0.0,23,0.00,,CLR,0.00,VWS V14.01,2013-03-02 16:21:00,
2013-03-02 09:22:00,62.6,24.3,17.72,NW,312,0.0,0.0,23,0.00,,CLR,0.00,VWS V14.01,2013-03-02 16:22:00,
2013-03-02 09:23:00,62.6,24.3,17.72,NW,312,0.0,0.0,23,0.00,,CLR,0.00,VWS V14.01,2013-03-02 16:23:00,
2013-03-02 09:24:00,63.0,22.5,17.72,NW,312,0.0,0.0,21,0.00,,CLR,0.00,VWS V14.01,2013-03-02 16:24:00,
2013-03-02 09:25:00,63.0,22.4,17.72,NW,312,0.0,0.0,21,0.00,,CLR,0.00,VWS V14.01,2013-03-02 16:25:00,
2013-03-02 09:26:00,63.0,22.4,17.72,NW,312,0.0,0.0,21,0.00,,CLR,0.00,VWS V14.01,2013-03-02 16:26:00,
2013-03-02 09:27:00,63.0,22.4,17.72,NW,312,0.0,0.0,21,0.00,,CLR,0.00,VWS V14.01,2013-03-02 16:27:00,
2013-03-02 09:28:00,63.0,22.4,17.72,NW,313,0.0,0.0,21,0.00,,CLR,0.00,VWS V14.01,2013-03-02 16:28:00,
2013-03-02 09:29:00,63.0,22.5,17.72,NW,313,0.0,0.0,21,0.00,,CLR,0.00,VWS V14.01,2013-03-02 16:29:00,
2013-03-02 09:30:00,63.0,22.4,17.72,NW,313,0.0,0.0,21,0.00,,CLR,0.00,VWS V14.01,2013-03-02 16:30:00,
2013-03-02 09:31:00,63.0,22.4,17.72,NW,313,0.0,0.0,21,0.00,,CLR,0.00,VWS V14.01,2013-03-02 16:31:00,
2013-03-02 09:32:00,63.0,22.4,17.72,NW,313,0.0,0.0,21,0.00,,CLR,0.00,VWS V14.01,2013-03-02 16:32:00,
2013-03-02 09:33:00,63.0,22.4,17.72,NW,313,0.0,0.0,21,0.00,,CLR,0.00,VWS V14.01,2013-03-02 16:33:00,
2013-03-02 09:34:00,63.0,22.4,17.72,NW,313,0.0,0.0,21,0.00,,CLR,0.00,VWS V14.01,2013-03-02 16:34:00,
2013-03-02 09:35:00,63.0,22.5,17.72,NW,312,0.0,0.0,21,0.00,,CLR,0.00,VWS V14.01,2013-03-02 16:35:00,
2013-03-02 09:36:00,63.0,22.4,17.72,NW,312,0.0,0.0,21,0.00,,CLR,0.00,VWS V14.01,2013-03-02 16:36:00,
2013-03-02 09:37:00,63.0,22.4,17.72,NW,312,0.0,0.0,21,0.00,,CLR,0.00,VWS V14.01,2013-03-02 16:37:00,
2013-03-02 09:38:00,63.0,22.4,17.72,NW,312,0.0,0.0,21,0.00,,CLR,0.00,VWS V14.01,2013-03-02 16:38:00,
2013-03-02 09:39:00,63.0,22.4,17.72,NW,312,0.0,0.0,21,0.00,,CLR,0.00,VWS V14.01,2013-03-02 16:39:00,
2013-03-02 09:40:00,63.0,22.4,17.72,NW,312,0.0,0.0,21,0.00,,CLR,0.00,VWS V14.01,2013-03-02 16:40:00,
2013-03-02 09:41:00,63.0,22.5,17.72,NW,312,0.0,0.0,21,0.00,,CLR,0.00,VWS V14.01,2013-03-02 16:41:00,
2013-03-02 09:42:00,63.0,22.4,17.72,NW,312,0.0,0.0,21,0.00,,CLR,0.00,VWS V14.01,2013-03-02 16:42:00,
2013-03-02 09:43:00,63.0,22.4,17.72,NW,312,0.0,0.0,21,0.00,,CLR,0.00,VWS V14.01,2013-03-02 16:43:00,
2013-03-02 09:44:00,63.0,22.4,17.72,NW,312,0.0,0.0,21,0.00,,CLR,0.00,VWS V14.01,2013-03-02 16:44:00,
2013-03-02 09:45:00,63.0,22.4,17.72,NW,312,0.0,0.0,21,0.00,,CLR,0.00,VWS V14.01,2013-03-02 16:45:00,
2013-03-02 09:46:00,63.0,22.5,17.72,NW,312,0.0,0.0,21,0.00,,CLR,0.00,VWS V14.01,2013-03-02 16:46:00,
2013-03-02 09:47:00,63.0,22.4,17.72,NW,312,0.0,0.0,21,0.00,,CLR,0.00,VWS V14.01,2013-03-02 16:47:00,
2013-03-02 09:48:00,63.7,23.0,17.72,NW,312,0.0,0.0,21,0.00,,CLR,0.00,VWS V14.01,2013-03-02 16:48:00,
2013-03-02 09:49:00,63.7,23.0,17.72,NW,312,0.0,0.0,21,0.00,,CLR,0.00,VWS V14.01,2013-03-02 16:49:00,
2013-03-02 09:50:00,63.7,23.0,17.72,NW,312,0.0,0.0,21,0.00,,CLR,0.00,VWS V14.01,2013-03-02 16:50:00,
2013-03-02 09:51:00,63.7,23.0,17.72,NW,312,0.0,0.0,21,0.00,,CLR,0.00,VWS V14.01,2013-03-02 16:51:00,
2013-03-02 09:52:00,63.7,23.0,17.72,NW,312,0.0,0.0,21,0.00,,CLR,0.00,VWS V14.01,2013-03-02 16:52:00,
2013-03-02 09:53:00,63.7,23.0,17.72,NW,312,0.0,0.0,21,0.00,,CLR,0.00,VWS V14.01,2013-03-02 16:53:00,
2013-03-02 09:54:00,63.7,23.0,17.72,NW,312,0.0,0.0,21,0.00,,CLR,0.00,VWS V14.01,2013-03-02 16:54:00,
2013-03-02 09:55:00,63.7,23.0,17.72,NW,312,0.0,0.0,21,0.00,,CLR,0.00,VWS V14.01,2013-03-02 16:55:00,
2013-03-02 09:56:00,63.7,23.0,17.72,NW,312,0.0,0.0,21,0.00,,CLR,0.00,VWS V14.01,2013-03-02 16:56:00,
2013-03-02 09:57:00,63.9,23.2,17.72,NW,312,0.0,0.0,21,0.00,,CLR,0.00,VWS V14.01,2013-03-02 16:57:00,
2013-03-02 09:58:00,63.9,23.2,17.72,NW,312,0.0,0.0,21,0.00,,CLR,0.00,VWS V14.01,2013-03-02 16:58:00,
2013-03-02 09:59:00,63.9,23.2,17.72,NW,312,0.0,0.0,21,0.00,,CLR,0.00,VWS V14.01,2013-03-02 16:59:00,
2013-03-02 10:00:00,63.9,23.2,17.72,NW,312,0.0,0.0,21,0.00,,CLR,0.00,VWS V14.01,2013-03-02 17:00:00,
2013-03-02 10:01:00,64.0,23.3,17.72,NW,312,0.0,0.0,21,0.00,,CLR,0.00,VWS V14.01,2013-03-02 17:01:00,
2013-03-02 10:02:00,64.0,23.3,17.72,NW,312,0.0,0.0,21,0.00,,CLR,0.00,VWS V14.01,2013-03-02 17:02:00,
2013-03-02 10:03:00,64.0,23.3,17.72,NW,312,0.0,0.0,21,0.00,,CLR,0.00,VWS V14.01,2013-03-02 17:03:00,
2013-03-02 10:04:00,64.0,23.3,17.72,NW,312,0.0,0.0,21,0.00,,CLR,0.00,VWS V14.01,2013-03-02 17:04:00,
2013-03-02 10:05:00,64.0,23.3,17.72,NW,312,0.0,0.0,21,0.00,,CLR,0.00,VWS V14.01,2013-03-02 17:05:00,
2013-03-02 10:06:00,64.0,23.3,17.72,NW,312,0.0,0.0,21,0.00,,CLR,0.00,VWS V14.01,2013-03-02 17:06:00,
2013-03-02 10:07:00,64.0,23.3,17.72,NW,312,0.0,0.0,21,0.00,,CLR,0.00,VWS V14.01,2013-03-02 17:07:00,
2013-03-02 10:08:00,64.0,23.3,17.72,NW,312,0.0,0.0,21,0.00,,CLR,0.00,VWS V14.01,2013-03-02 17:08:00,
2013-03-02 10:09:00,64.0,23.3,17.72,NW,312,0.0,0.0,21,0.00,,CLR,0.00,VWS V14.01,2013-03-02 17:09:00,
2013-03-02 10:10:00,64.0,23.3,17.72,NW,312,0.0,0.0,21,0.00,,CLR,0.00,VWS V14.01,2013-03-02 17:10:00,
2013-03-02 10:11:00,64.0,23.3,17.72,NW,312,0.0,0.0,21,0.00,,CLR,0.00,VWS V14.01,2013-03-02 17:11:00,
2013-03-02 10:12:00,64.0,23.3,17.72,NW,312,0.0,0.0,21,0.00,,CLR,0.00,VWS V14.01,2013-03-02 17:12:00,
2013-03-02 10:13:00,65.3,23.2,17.72,NW,312,0.0,0.0,20,0.00,,CLR,0.00,VWS V14.01,2013-03-02 17:13:00,
2013-03-02 10:14:00,65.3,23.2,17.72,NW,312,0.0,0.0,20,0.00,,CLR,0.00,VWS V14.01,2013-03-02 17:14:00,
2013-03-02 10:15:00,65.3,23.2,17.72,NW,312,0.0,0.0,20,0.00,,CLR,0.00,VWS V14.01,2013-03-02 17:15:00,
2013-03-02 10:16:00,65.5,23.4,17.72,NW,312,0.0,0.0,20,0.00,,CLR,0.00,VWS V14.01,2013-03-02 17:16:00,
2013-03-02 10:17:00,65.5,23.4,17.72,NW,312,0.0,0.0,20,0.00,,CLR,0.00,VWS V14.01,2013-03-02 17:17:00,
2013-03-02 10:18:00,65.5,23.4,17.72,NW,312,0.0,0.0,20,0.00,,CLR,0.00,VWS V14.01,2013-03-02 17:18:00,
2013-03-02 10:19:00,65.5,23.4,17.72,NW,313,0.0,0.0,20,0.00,,CLR,0.00,VWS V14.01,2013-03-02 17:19:00,
2013-03-02 10:20:00,65.5,23.4,17.72,NW,313,0.0,0.0,20,0.00,,CLR,0.00,VWS V14.01,2013-03-02 17:20:00,
2013-03-02 10:21:00,65.7,23.5,17.72,NW,312,0.0,0.0,20,0.00,,CLR,0.00,VWS V14.01,2013-03-02 17:21:00,
2013-03-02 10:22:00,65.7,23.5,17.72,NW,312,0.0,0.0,20,0.00,,CLR,0.00,VWS V14.01,2013-03-02 17:22:00,
2013-03-02 10:23:00,65.8,23.7,17.72,NW,312,0.0,0.0,20,0.00,,CLR,0.00,VWS V14.01,2013-03-02 17:23:00,
2013-03-02 10:24:00,65.8,23.7,17.72,NW,313,0.0,0.0,20,0.00,,CLR,0.00,VWS V14.01,2013-03-02 17:24:00,
2013-03-02 10:25:00,65.8,23.7,17.72,NW,313,0.0,0.0,20,0.00,,CLR,0.00,VWS V14.01,2013-03-02 17:25:00,
2013-03-02 10:26:00,65.8,23.7,17.72,NW,312,0.0,0.0,20,0.00,,CLR,0.00,VWS V14.01,2013-03-02 17:26:00,
2013-03-02 10:27:00,66.0,21.3,17.72,NW,312,0.0,0.0,18,0.00,,CLR,0.00,VWS V14.01,2013-03-02 17:27:00,
2013-03-02 10:28:00,66.0,21.3,17.72,NW,312,0.0,0.0,18,0.00,,CLR,0.00,VWS V14.01,2013-03-02 17:28:00,
2013-03-02 10:29:00,66.0,21.3,17.72,NW,312,0.0,0.0,18,0.00,,CLR,0.00,VWS V14.01,2013-03-02 17:29:00,
2013-03-02 10:30:00,66.0,21.3,17.72,NW,312,0.0,0.0,18,0.00,,CLR,0.00,VWS V14.01,2013-03-02 17:30:00,
2013-03-02 10:31:00,66.0,21.3,17.72,NW,312,0.0,0.0,18,0.00,,CLR,0.00,VWS V14.01,2013-03-02 17:31:00,
2013-03-02 10:32:00,66.0,21.3,17.72,NW,312,0.0,0.0,18,0.00,,CLR,0.00,VWS V14.01,2013-03-02 17:32:00,
2013-03-02 10:33:00,66.0,21.3,17.72,NW,312,0.0,0.0,18,0.00,,CLR,0.00,VWS V14.01,2013-03-02 17:33:00,
2013-03-02 10:34:00,66.0,21.3,17.72,NW,312,0.0,0.0,18,0.00,,CLR,0.00,VWS V14.01,2013-03-02 17:34:00,
2013-03-02 10:35:00,66.0,21.3,17.72,NW,312,0.0,0.0,18,0.00,,CLR,0.00,VWS V14.01,2013-03-02 17:35:00,
2013-03-02 10:36:00,66.0,21.3,17.72,NW,312,0.0,0.0,18,0.00,,CLR,0.00,VWS V14.01,2013-03-02 17:36:00,
2013-03-02 10:37:00,66.0,21.3,17.72,NW,312,0.0,0.0,18,0.00,,CLR,0.00,VWS V14.01,2013-03-02 17:37:00,
2013-03-02 10:38:00,66.0,21.3,17.72,NW,312,0.0,0.0,18,0.00,,CLR,0.00,VWS V14.01,2013-03-02 17:38:00,
2013-03-02 10:39:00,66.0,21.3,17.72,NW,312,0.0,0.0,18,0.00,,CLR,0.00,VWS V14.01,2013-03-02 17:39:00,
2013-03-02 10:40:00,66.0,21.3,17.72,NW,312,0.0,0.0,18,0.00,,CLR,0.00,VWS V14.01,2013-03-02 17:40:00,
2013-03-02 10:41:00,66.0,21.3,17.72,NW,312,0.0,0.0,18,0.00,,CLR,0.00,VWS V14.01,2013-03-02 17:41:00,
2013-03-02 10:42:00,66.2,20.1,17.72,NW,312,0.0,0.0,17,0.00,,CLR,0.00,VWS V14.01,2013-03-02 17:42:00,
2013-03-02 10:43:00,66.2,20.1,17.72,NW,312,0.0,0.0,17,0.00,,CLR,0.00,VWS V14.01,2013-03-02 17:43:00,
2013-03-02 10:44:00,66.2,20.1,17.72,NW,312,0.0,0.0,17,0.00,,CLR,0.00,VWS V14.01,2013-03-02 17:44:00,
2013-03-02 10:45:00,66.4,20.3,17.72,NW,312,0.0,0.0,17,0.00,,CLR,0.00,VWS V14.01,2013-03-02 17:45:00,
2013-03-02 10:46:00,66.4,20.3,17.72,NW,312,0.0,0.0,17,0.00,,CLR,0.00,VWS V14.01,2013-03-02 17:46:00,
2013-03-02 10:47:00,66.4,20.3,17.72,NW,312,0.0,0.0,17,0.00,,CLR,0.00,VWS V14.01,2013-03-02 17:47:00,
2013-03-02 10:48:00,66.4,20.3,17.72,NW,312,0.0,0.0,17,0.00,,CLR,0.00,VWS V14.01,2013-03-02 17:48:00,
2013-03-02 10:49:00,66.7,20.6,17.72,NW,312,0.0,0.0,17,0.00,,CLR,0.00,VWS V14.01,2013-03-02 17:49:00,
2013-03-02 10:50:00,66.7,20.6,17.72,NW,312,0.0,0.0,17,0.00,,CLR,0.00,VWS V14.01,2013-03-02 17:50:00,
2013-03-02 10:51:00,67.1,20.9,17.72,NW,312,0.0,0.0,17,0.00,,CLR,0.00,VWS V14.01,2013-03-02 17:51:00,
2013-03-02 10:52:00,67.3,21.0,17.72,NW,312,0.0,0.0,17,0.00,,CLR,0.00,VWS V14.01,2013-03-02 17:52:00,
2013-03-02 10:53:00,67.3,21.0,17.72,NW,312,0.0,0.0,17,0.00,,CLR,0.00,VWS V14.01,2013-03-02 17:53:00,
2013-03-02 10:54:00,67.3,21.0,17.72,NW,312,0.0,0.0,17,0.00,,CLR,0.00,VWS V14.01,2013-03-02 17:54:00,
2013-03-02 10:55:00,67.3,21.0,17.72,NW,312,0.0,0.0,17,0.00,,CLR,0.00,VWS V14.01,2013-03-02 17:55:00,
2013-03-02 10:56:00,67.3,21.0,17.72,NW,312,0.0,0.0,17,0.00,,CLR,0.00,VWS V14.01,2013-03-02 17:56:00,
2013-03-02 10:57:00,67.3,21.0,17.72,NW,312,0.0,0.0,17,0.00,,CLR,0.00,VWS V14.01,2013-03-02 17:57:00,
2013-03-02 10:58:00,67.3,21.0,17.72,NW,312,0.0,0.0,17,0.00,,CLR,0.00,VWS V14.01,2013-03-02 17:58:00,
2013-03-02 10:59:00,67.3,21.0,17.72,NW,312,0.0,0.0,17,0.00,,CLR,0.00,VWS V14.01,2013-03-02 17:59:00,
2013-03-02 11:00:00,68.2,21.7,17.72,NW,312,0.0,0.0,17,0.00,,CLR,0.00,VWS V14.01,2013-03-02 18:00:00,
2013-03-02 11:01:00,68.2,21.7,17.72,NW,313,0.0,0.0,17,0.00,,CLR,0.00,VWS V14.01,2013-03-02 18:01:00,
2013-03-02 11:02:00,68.2,21.7,17.72,NW,312,0.0,0.0,17,0.00,,CLR,0.00,VWS V14.01,2013-03-02 18:02:00,
2013-03-02 11:03:00,68.2,21.7,17.72,NW,312,0.0,0.0,17,0.00,,CLR,0.00,VWS V14.01,2013-03-02 18:03:00,
2013-03-02 11:04:00,68.4,21.9,17.72,NW,312,0.0,0.0,17,0.00,,CLR,0.00,VWS V14.01,2013-03-02 18:04:00,
2013-03-02 11:05:00,68.4,21.9,17.72,NW,312,0.0,0.0,17,0.00,,CLR,0.00,VWS V14.01,2013-03-02 18:05:00,
2013-03-02 11:06:00,68.4,21.9,17.72,NW,312,0.0,0.0,17,0.00,,CLR,0.00,VWS V14.01,2013-03-02 18:06:00,
2013-03-02 11:07:00,68.4,21.9,17.72,NW,312,0.0,0.0,17,0.00,,CLR,0.00,VWS V14.01,2013-03-02 18:07:00,
2013-03-02 11:08:00,68.5,22.0,17.72,NW,312,0.0,0.0,17,0.00,,CLR,0.00,VWS V14.01,2013-03-02 18:08:00,
2013-03-02 11:09:00,68.5,22.0,17.72,NW,312,0.0,0.0,17,0.00,,CLR,0.00,VWS V14.01,2013-03-02 18:09:00,
2013-03-02 11:10:00,68.5,22.0,17.72,NW,312,0.0,0.0,17,0.00,,CLR,0.00,VWS V14.01,2013-03-02 18:10:00,
2013-03-02 11:11:00,68.5,22.0,17.72,NW,312,0.0,0.0,17,0.00,,CLR,0.00,VWS V14.01,2013-03-02 18:11:00,
2013-03-02 11:12:00,68.7,22.2,17.72,NW,312,0.0,0.0,17,0.00,,CLR,0.00,VWS V14.01,2013-03-02 18:12:00,
2013-03-02 11:13:00,68.7,22.2,17.72,NW,312,0.0,0.0,17,0.00,,CLR,0.00,VWS V14.01,2013-03-02 18:13:00,
2013-03-02 11:14:00,68.7,22.2,17.72,NW,312,0.0,0.0,17,0.00,,CLR,0.00,VWS V14.01,2013-03-02 18:14:00,
2013-03-02 11:15:00,68.9,22.3,17.72,NW,312,0.0,0.0,17,0.00,,CLR,0.00,VWS V14.01,2013-03-02 18:15:00,
2013-03-02 11:16:00,68.9,22.3,17.72,NW,312,0.0,0.0,17,0.00,,CLR,0.00,VWS V14.01,2013-03-02 18:16:00,
2013-03-02 11:17:00,69.1,22.5,17.72,NW,312,0.0,0.0,17,0.00,,CLR,0.00,VWS V14.01,2013-03-02 18:17:00,
2013-03-02 11:18:00,69.1,22.5,17.72,NW,312,0.0,0.0,17,0.00,,CLR,0.00,VWS V14.01,2013-03-02 18:18:00,
2013-03-02 11:19:00,69.4,22.8,17.72,NW,312,0.0,0.0,17,0.00,,CLR,0.00,VWS V14.01,2013-03-02 18:19:00,
2013-03-02 11:20:00,69.4,22.8,17.72,NW,312,0.0,0.0,17,0.00,,CLR,0.00,VWS V14.01,2013-03-02 18:20:00,
2013-03-02 11:21:00,69.4,22.8,17.72,NW,313,0.0,0.0,17,0.00,,CLR,0.00,VWS V14.01,2013-03-02 18:21:00,
2013-03-02 11:22:00,69.4,22.8,17.72,NW,313,0.0,0.0,17,0.00,,CLR,0.00,VWS V14.01,2013-03-02 18:22:00,
2013-03-02 11:23:00,69.4,22.8,17.72,NW,312,0.0,0.0,17,0.00,,CLR,0.00,VWS V14.01,2013-03-02 18:23:00,
2013-03-02 11:24:00,69.4,22.8,17.72,NW,312,0.0,0.0,17,0.00,,CLR,0.00,VWS V14.01,2013-03-02 18:24:00,
2013-03-02 11:25:00,69.4,22.8,17.72,NW,312,0.0,0.0,17,0.00,,CLR,0.00,VWS V14.01,2013-03-02 18:25:00,
2013-03-02 11:26:00,69.4,22.8,17.72,NW,312,0.0,0.0,17,0.00,,CLR,0.00,VWS V14.01,2013-03-02 18:26:00,
2013-03-02 11:27:00,69.4,22.8,17.72,NW,312,0.0,0.0,17,0.00,,CLR,0.00,VWS V14.01,2013-03-02 18:27:00,
2013-03-02 11:28:00,69.4,22.8,17.72,NW,312,0.0,0.0,17,0.00,,CLR,0.00,VWS V14.01,2013-03-02 18:28:00,
2013-03-02 11:29:00,69.4,22.8,17.72,NW,312,0.0,0.0,17,0.00,,CLR,0.00,VWS V14.01,2013-03-02 18:29:00,
2013-03-02 11:30:00,70.3,23.5,17.72,NW,312,0.0,0.0,17,0.00,,CLR,0.00,VWS V14.01,2013-03-02 18:30:00,
2013-03-02 11:31:00,70.3,23.5,17.72,NW,312,0.0,0.0,17,0.00,,CLR,0.00,VWS V14.01,2013-03-02 18:31:00,
2013-03-02 11:32:00,70.5,23.6,17.72,NW,312,0.0,0.0,17,0.00,,CLR,0.00,VWS V14.01,2013-03-02 18:32:00,
2013-03-02 11:33:00,70.5,23.6,17.72,NW,312,0.0,0.0,17,0.00,,CLR,0.00,VWS V14.01,2013-03-02 18:33:00,
2013-03-02 11:34:00,70.5,23.6,17.72,NW,312,0.0,0.0,17,0.00,,CLR,0.00,VWS V14.01,2013-03-02 18:34:00,
2013-03-02 11:35:00,70.5,23.6,17.72,NW,312,0.0,0.0,17,0.00,,CLR,0.00,VWS V14.01,2013-03-02 18:35:00,
2013-03-02 11:36:00,70.5,23.6,17.72,NW,312,0.0,0.0,17,0.00,,CLR,0.00,VWS V14.01,2013-03-02 18:36:00,
2013-03-02 11:37:00,70.5,23.6,17.72,NW,312,0.0,0.0,17,0.00,,CLR,0.00,VWS V14.01,2013-03-02 18:37:00,
2013-03-02 11:38:00,70.5,23.6,17.72,NW,312,0.0,0.0,17,0.00,,CLR,0.00,VWS V14.01,2013-03-02 18:38:00,
2013-03-02 11:39:00,70.5,23.6,17.72,NW,312,0.0,0.0,17,0.00,,CLR,0.00,VWS V14.01,2013-03-02 18:39:00,
2013-03-02 11:40:00,70.5,23.6,17.72,NW,312,0.0,0.0,17,0.00,,CLR,0.00,VWS V14.01,2013-03-02 18:40:00,
2013-03-02 11:41:00,71.1,24.1,17.72,NW,312,0.0,0.0,17,0.00,,CLR,0.00,VWS V14.01,2013-03-02 18:41:00,
2013-03-02 11:42:00,71.2,24.2,17.72,NW,312,0.0,0.0,17,0.00,,CLR,0.00,VWS V14.01,2013-03-02 18:42:00,
2013-03-02 11:43:00,71.2,24.2,17.72,NW,312,0.0,0.0,17,0.00,,CLR,0.00,VWS V14.01,2013-03-02 18:43:00,
2013-03-02 11:44:00,71.2,24.2,17.72,NW,312,0.0,0.0,17,0.00,,CLR,0.00,VWS V14.01,2013-03-02 18:44:00,
2013-03-02 11:45:00,71.2,24.2,17.72,NW,312,0.0,0.0,17,0.00,,CLR,0.00,VWS V14.01,2013-03-02 18:45:00,
2013-03-02 11:46:00,71.2,24.2,17.72,NW,312,0.0,0.0,17,0.00,,CLR,0.00,VWS V14.01,2013-03-02 18:46:00,
2013-03-02 11:47:00,71.2,24.2,17.72,NW,312,0.0,0.0,17,0.00,,CLR,0.00,VWS V14.01,2013-03-02 18:47:00,
2013-03-02 11:48:00,71.2,24.2,17.72,NW,312,0.0,0.0,17,0.00,,CLR,0.00,VWS V14.01,2013-03-02 18:48:00,
2013-03-02 11:49:00,71.8,23.2,17.72,NW,312,0.0,0.0,16,0.00,,CLR,0.00,VWS V14.01,2013-03-02 18:49:00,
2013-03-02 11:50:00,71.8,23.2,17.72,NW,312,0.0,0.0,16,0.00,,CLR,0.00,VWS V14.01,2013-03-02 18:50:00,
2013-03-02 11:51:00,71.8,23.2,17.72,NW,312,0.0,0.0,16,0.00,,CLR,0.00,VWS V14.01,2013-03-02 18:51:00,
2013-03-02 11:52:00,71.8,23.2,17.72,NW,312,0.0,0.0,16,0.00,,CLR,0.00,VWS V14.01,2013-03-02 18:52:00,
2013-03-02 11:53:00,71.8,23.2,17.72,NW,312,0.0,0.0,16,0.00,,CLR,0.00,VWS V14.01,2013-03-02 18:53:00,
2013-03-02 11:54:00,71.8,23.2,17.72,NW,312,0.0,0.0,16,0.00,,CLR,0.00,VWS V14.01,2013-03-02 18:54:00,
2013-03-02 11:55:00,71.8,23.2,17.72,NW,312,0.0,0.0,16,0.00,,CLR,0.00,VWS V14.01,2013-03-02 18:55:00,
2013-03-02 11:56:00,72.0,23.4,17.72,NW,312,0.0,0.0,16,0.00,,CLR,0.00,VWS V14.01,2013-03-02 18:56:00,
2013-03-02 11:57:00,72.0,23.4,17.72,NW,312,0.0,0.0,16,0.00,,CLR,0.00,VWS V14.01,2013-03-02 18:57:00,
2013-03-02 11:58:00,72.1,23.5,17.72,NW,312,0.0,0.0,16,0.00,,CLR,0.00,VWS V14.01,2013-03-02 18:58:00,
2013-03-02 11:59:00,72.1,23.5,17.72,NW,312,0.0,0.0,16,0.00,,CLR,0.00,VWS V14.01,2013-03-02 18:59:00,
2013-03-02 12:00:00,72.1,23.5,17.72,NW,312,0.0,0.0,16,0.00,,CLR,0.00,VWS V14.01,2013-03-02 19:00:00,
2013-03-02 12:01:00,72.1,23.5,17.72,NW,312,0.0,0.0,16,0.00,,CLR,0.00,VWS V14.01,2013-03-02 19:01:00,
2013-03-02 12:02:00,72.1,23.5,17.72,NW,312,0.0,0.0,16,0.00,,CLR,0.00,VWS V14.01,2013-03-02 19:02:00,
2013-03-02 12:03:00,72.1,23.5,17.72,NW,312,0.0,0.0,16,0.00,,CLR,0.00,VWS V14.01,2013-03-02 19:03:00,
2013-03-02 12:04:00,72.1,23.5,17.72,NW,312,0.0,0.0,16,0.00,,CLR,0.00,VWS V14.01,2013-03-02 19:04:00,
2013-03-02 12:05:00,72.1,23.5,17.72,NW,312,0.0,0.0,16,0.00,,CLR,0.00,VWS V14.01,2013-03-02 19:05:00,
2013-03-02 12:06:00,72.1,23.5,17.72,NW,312,0.0,0.0,16,0.00,,CLR,0.00,VWS V14.01,2013-03-02 19:06:00,
2013-03-02 12:07:00,72.1,23.5,17.72,NW,312,0.0,0.0,16,0.00,,CLR,0.00,VWS V14.01,2013-03-02 19:07:00,
2013-03-02 12:08:00,72.9,24.1,17.72,NW,312,0.0,0.0,16,0.00,,CLR,0.00,VWS V14.01,2013-03-02 19:08:00,
2013-03-02 12:09:00,72.9,24.1,17.72,NW,312,0.0,0.0,16,0.00,,CLR,0.00,VWS V14.01,2013-03-02 19:09:00,
2013-03-02 12:10:00,72.9,24.1,17.72,NW,312,0.0,0.0,16,0.00,,CLR,0.00,VWS V14.01,2013-03-02 19:10:00,
2013-03-02 12:11:00,72.9,24.1,17.72,NW,312,0.0,0.0,16,0.00,,CLR,0.00,VWS V14.01,2013-03-02 19:11:00,
2013-03-02 12:12:00,72.9,24.1,17.72,NW,312,0.0,0.0,16,0.00,,CLR,0.00,VWS V14.01,2013-03-02 19:12:00,
2013-03-02 12:13:00,72.9,24.1,17.72,NW,312,0.0,0.0,16,0.00,,CLR,0.00,VWS V14.01,2013-03-02 19:13:00,
2013-03-02 12:14:00,72.9,24.1,17.72,NW,312,0.0,0.0,16,0.00,,CLR,0.00,VWS V14.01,2013-03-02 19:14:00,
2013-03-02 12:15:00,72.9,24.1,17.72,NW,312,0.0,0.0,16,0.00,,CLR,0.00,VWS V14.01,2013-03-02 19:15:00,
2013-03-02 12:16:00,72.9,24.1,17.72,NW,312,0.0,0.0,16,0.00,,CLR,0.00,VWS V14.01,2013-03-02 19:16:00,
2013-03-02 12:17:00,72.9,24.1,17.72,NW,312,0.0,0.0,16,0.00,,CLR,0.00,VWS V14.01,2013-03-02 19:17:00,
2013-03-02 12:18:00,73.4,24.5,17.72,NW,312,0.0,0.0,16,0.00,,CLR,0.00,VWS V14.01,2013-03-02 19:18:00,
2013-03-02 12:19:00,73.4,24.5,17.72,NW,312,0.0,0.0,16,0.00,,CLR,0.00,VWS V14.01,2013-03-02 19:19:00,
2013-03-02 12:20:00,73.4,24.5,17.72,NW,312,0.0,0.0,16,0.00,,CLR,0.00,VWS V14.01,2013-03-02 19:20:00,
2013-03-02 12:21:00,73.4,24.5,17.72,NW,312,0.0,0.0,16,0.00,,CLR,0.00,VWS V14.01,2013-03-02 19:21:00,
2013-03-02 12:22:00,73.4,24.5,17.72,NW,312,0.0,0.0,16,0.00,,CLR,0.00,VWS V14.01,2013-03-02 19:22:00,
2013-03-02 12:23:00,73.4,24.5,17.72,NW,312,0.0,0.0,16,0.00,,CLR,0.00,VWS V14.01,2013-03-02 19:23:00,
2013-03-02 12:24:00,73.8,24.8,17.72,NW,312,0.0,0.0,16,0.00,,CLR,0.00,VWS V14.01,2013-03-02 19:24:00,
2013-03-02 12:25:00,73.9,25.0,17.72,NW,312,0.0,0.0,16,0.00,,CLR,0.00,VWS V14.01,2013-03-02 19:25:00,
2013-03-02 12:26:00,73.9,25.0,17.72,NW,312,0.0,0.0,16,0.00,,CLR,0.00,VWS V14.01,2013-03-02 19:26:00,
2013-03-02 12:27:00,74.1,25.1,17.72,NW,312,0.0,0.0,16,0.00,,CLR,0.00,VWS V14.01,2013-03-02 19:27:00,
2013-03-02 12:28:00,74.1,25.1,17.72,NW,312,0.0,0.0,16,0.00,,CLR,0.00,VWS V14.01,2013-03-02 19:28:00,
2013-03-02 12:29:00,74.1,25.1,17.72,NW,312,0.0,0.0,16,0.00,,CLR,0.00,VWS V14.01,2013-03-02 19:29:00,
2013-03-02 12:30:00,74.1,25.1,17.72,NW,312,0.0,0.0,16,0.00,,CLR,0.00,VWS V14.01,2013-03-02 19:30:00,
2013-03-02 12:31:00,74.1,25.1,17.72,NW,312,0.0,0.0,16,0.00,,CLR,0.00,VWS V14.01,2013-03-02 19:31:00,
2013-03-02 12:32:00,74.1,25.1,17.72,NW,312,0.0,0.0,16,0.00,,CLR,0.00,VWS V14.01,2013-03-02 19:32:00,
2013-03-02 12:33:00,74.1,25.1,17.72,NW,312,0.0,0.0,16,0.00,,CLR,0.00,VWS V14.01,2013-03-02 19:33:00,
2013-03-02 12:34:00,74.1,25.1,17.72,NW,312,0.0,0.0,16,0.00,,CLR,0.00,VWS V14.01,2013-03-02 19:34:00,
2013-03-02 12:35:00,74.1,25.1,17.72,NW,312,0.0,0.0,16,0.00,,CLR,0.00,VWS V14.01,2013-03-02 19:35:00,
2013-03-02 12:36:00,74.1,25.1,17.72,NW,312,0.0,0.0,16,0.00,,CLR,0.00,VWS V14.01,2013-03-02 19:36:00,
2013-03-02 12:37:00,74.1,25.1,17.72,NW,312,0.0,0.0,16,0.00,,CLR,0.00,VWS V14.01,2013-03-02 19:37:00,
2013-03-02 12:38:00,74.1,25.1,17.72,NW,312,0.0,0.0,16,0.00,,CLR,0.00,VWS V14.01,2013-03-02 19:38:00,
2013-03-02 12:39:00,74.1,25.1,17.72,NW,312,0.0,0.0,16,0.00,,CLR,0.00,VWS V14.01,2013-03-02 19:39:00,
2013-03-02 12:40:00,74.1,25.1,17.72,NW,312,0.0,0.0,16,0.00,,CLR,0.00,VWS V14.01,2013-03-02 19:40:00,
2013-03-02 12:41:00,74.1,25.1,17.72,NW,312,0.0,0.0,16,0.00,,CLR,0.00,VWS V14.01,2013-03-02 19:41:00,
2013-03-02 12:42:00,74.1,25.1,17.72,NW,312,0.0,0.0,16,0.00,,CLR,0.00,VWS V14.01,2013-03-02 19:42:00,
2013-03-02 12:43:00,74.1,25.1,17.72,NW,312,0.0,0.0,16,0.00,,CLR,0.00,VWS V14.01,2013-03-02 19:43:00,
2013-03-02 12:44:00,74.1,25.1,17.72,NW,312,0.0,0.0,16,0.00,,CLR,0.00,VWS V14.01,2013-03-02 19:44:00,
2013-03-02 12:45:00,74.1,25.1,17.72,NW,312,0.0,0.0,16,0.00,,CLR,0.00,VWS V14.01,2013-03-02 19:45:00,
2013-03-02 12:46:00,74.5,25.4,17.72,NW,313,0.0,0.0,16,0.00,,CLR,0.00,VWS V14.01,2013-03-02 19:46:00,
2013-03-02 12:47:00,74.5,25.4,17.72,NW,313,0.0,0.0,16,0.00,,CLR,0.00,VWS V14.01,2013-03-02 19:47:00,
2013-03-02 12:48:00,74.5,25.4,17.72,NW,312,0.0,0.0,16,0.00,,CLR,0.00,VWS V14.01,2013-03-02 19:48:00,
2013-03-02 12:49:00,74.5,25.4,17.72,NW,312,0.0,0.0,16,0.00,,CLR,0.00,VWS V14.01,2013-03-02 19:49:00,
2013-03-02 12:50:00,74.7,25.5,17.72,NW,312,0.0,0.0,16,0.00,,CLR,0.00,VWS V14.01,2013-03-02 19:50:00,
2013-03-02 12:51:00,74.7,25.5,17.72,NW,312,0.0,0.0,16,0.00,,CLR,0.00,VWS V14.01,2013-03-02 19:51:00,
2013-03-02 12:52:00,74.7,25.5,17.72,NW,312,0.0,0.0,16,0.00,,CLR,0.00,VWS V14.01,2013-03-02 19:52:00,
2013-03-02 12:53:00,74.7,25.5,17.72,NW,312,0.0,0.0,16,0.00,,CLR,0.00,VWS V14.01,2013-03-02 19:53:00,
2013-03-02 12:54:00,74.7,25.5,17.72,NW,312,0.0,0.0,16,0.00,,CLR,0.00,VWS V14.01,2013-03-02 19:54:00,
2013-03-02 12:55:00,74.8,25.7,17.72,NW,312,0.0,0.0,16,0.00,,CLR,0.00,VWS V14.01,2013-03-02 19:55:00,
2013-03-02 12:56:00,74.8,25.7,17.72,NW,313,0.0,0.0,16,0.00,,CLR,0.00,VWS V14.01,2013-03-02 19:56:00,
2013-03-02 12:57:00,74.8,25.7,17.72,NW,312,0.0,0.0,16,0.00,,CLR,0.00,VWS V14.01,2013-03-02 19:57:00,
2013-03-02 12:58:00,74.8,25.7,17.72,NW,312,0.0,0.0,16,0.00,,CLR,0.00,VWS V14.01,2013-03-02 19:58:00,
2013-03-02 13:34:00,76.8,25.7,17.72,NW,312,0.0,0.0,15,0.00,,CLR,0.00,VWS V14.01,2013-03-02 20:34:00,
2013-03-02 13:43:00,77.4,26.1,17.72,NW,312,0.0,0.0,15,0.00,,CLR,0.00,VWS V14.01,2013-03-02 20:43:00,
2013-03-02 13:49:00,77.7,26.4,17.72,NW,312,0.0,0.0,15,0.00,,CLR,0.00,VWS V14.01,2013-03-02 20:49:00,
2013-03-02 13:54:00,78.3,26.9,17.72,NW,313,0.0,0.0,15,0.00,,CLR,0.00,VWS V14.01,2013-03-02 20:54:00,
2013-03-02 14:00:00,79.0,27.4,17.72,NW,312,0.0,0.0,15,0.00,,CLR,0.00,VWS V14.01,2013-03-02 21:00:00,
2013-03-02 14:05:00,79.3,27.7,17.72,NW,312,0.0,0.0,15,0.00,,CLR,0.00,VWS V14.01,2013-03-02 21:05:00,
2013-03-02 14:10:00,79.9,28.1,17.72,NW,312,0.0,0.0,15,0.00,,CLR,0.00,VWS V14.01,2013-03-02 21:10:00,
2013-03-02 14:15:00,80.1,28.3,17.72,NW,312,0.0,0.0,15,0.00,,CLR,0.00,VWS V14.01,2013-03-02 21:15:00,
2013-03-02 14:20:00,80.2,28.4,17.72,NW,312,0.0,0.0,15,0.00,,CLR,0.00,VWS V14.01,2013-03-02 21:20:00,
2013-03-02 14:25:00,80.4,28.6,17.72,NW,312,0.0,0.0,15,0.00,,CLR,0.00,VWS V14.01,2013-03-02 21:25:00,
2013-03-02 14:30:00,79.7,28.0,17.72,NW,312,0.0,0.0,15,0.00,,CLR,0.00,VWS V14.01,2013-03-02 21:30:00,
2013-03-02 14:35:00,79.7,28.0,17.72,NW,312,0.0,0.0,15,0.00,,CLR,0.00,VWS V14.01,2013-03-02 21:35:00,
2013-03-02 14:40:00,79.7,28.0,17.72,NW,312,0.0,0.0,15,0.00,,CLR,0.00,VWS V14.01,2013-03-02 21:40:00,
2013-03-02 14:45:00,80.1,28.3,17.72,NW,312,0.0,0.0,15,0.00,,CLR,0.00,VWS V14.01,2013-03-02 21:45:00,
2013-03-02 14:50:00,80.4,28.6,17.72,NW,312,0.0,0.0,15,0.00,,CLR,0.00,VWS V14.01,2013-03-02 21:50:00,
2013-03-02 14:56:00,80.6,27.0,17.72,NW,312,0.0,0.0,14,0.00,,CLR,0.00,VWS V14.01,2013-03-02 21:56:00,
2013-03-02 15:01:00,81.1,27.5,17.72,NW,312,0.0,0.0,14,0.00,,CLR,0.00,VWS V14.01,2013-03-02 22:01:00,
2013-03-02 15:07:00,81.5,27.8,17.72,NW,313,0.0,0.0,14,0.00,,CLR,0.00,VWS V14.01,2013-03-02 22:07:00,
2013-03-02 15:12:00,82.0,28.2,17.72,NW,312,0.0,0.0,14,0.00,,CLR,0.00,VWS V14.01,2013-03-02 22:12:00,
2013-03-02 15:17:00,82.6,28.6,17.72,NW,312,0.0,0.0,14,0.00,,CLR,0.00,VWS V14.01,2013-03-02 22:17:00,
2013-03-02 15:23:00,83.3,29.2,17.72,NW,312,0.0,0.0,14,0.00,,CLR,0.00,VWS V14.01,2013-03-02 22:23:00,
2013-03-02 15:28:00,83.7,29.5,17.72,NW,312,0.0,0.0,14,0.00,,CLR,0.00,VWS V14.01,2013-03-02 22:28:00,
2013-03-02 15:33:00,83.8,29.6,17.72,NW,312,0.0,0.0,14,0.00,,CLR,0.00,VWS V14.01,2013-03-02 22:33:00,
2013-03-02 15:38:00,84.2,28.1,17.72,NW,312,0.0,0.0,13,0.00,,CLR,0.00,VWS V14.01,2013-03-02 22:38:00,
2013-03-02 15:43:00,84.4,28.2,17.72,NW,312,0.0,0.0,13,0.00,,CLR,0.00,VWS V14.01,2013-03-02 22:43:00,
2013-03-02 15:49:00,84.9,28.6,17.72,NW,312,0.0,0.0,13,0.00,,CLR,0.00,VWS V14.01,2013-03-02 22:49:00,
2013-03-02 15:54:00,85.3,28.9,17.72,NW,312,0.0,0.0,13,0.00,,CLR,0.00,VWS V14.01,2013-03-02 22:54:00,
2013-03-02 15:59:00,86.0,29.5,17.72,NW,312,0.0,0.0,13,0.00,,CLR,0.00,VWS V14.01,2013-03-02 22:59:00,
2013-03-02 16:04:00,86.2,29.6,17.72,NW,312,0.0,0.0,13,0.00,,CLR,0.00,VWS V14.01,2013-03-02 23:04:00,
2013-03-02 16:09:00,86.2,29.6,17.72,NW,312,0.0,0.0,13,0.00,,CLR,0.00,VWS V14.01,2013-03-02 23:09:00,
2013-03-02 16:14:00,86.2,29.6,17.72,NW,312,0.0,0.0,13,0.00,,CLR,0.00,VWS V14.01,2013-03-02 23:14:00,
2013-03-02 16:19:00,86.2,29.6,17.72,NW,312,0.0,0.0,13,0.00,,CLR,0.00,VWS V14.01,2013-03-02 23:19:00,
2013-03-02 16:24:00,86.4,29.8,17.72,NW,312,0.0,0.0,13,0.00,,CLR,0.00,VWS V14.01,2013-03-02 23:24:00,
2013-03-02 16:29:00,86.2,29.6,17.72,NW,312,0.0,0.0,13,0.00,,CLR,0.00,VWS V14.01,2013-03-02 23:29:00,
2013-03-02 16:34:00,86.4,29.8,17.72,NW,312,0.0,0.0,13,0.00,,CLR,0.00,VWS V14.01,2013-03-02 23:34:00,
2013-03-02 16:39:00,86.7,30.0,17.72,NW,312,0.0,0.0,13,0.00,,CLR,0.00,VWS V14.01,2013-03-02 23:39:00,
2013-03-02 16:45:00,86.4,29.8,17.72,NW,312,0.0,0.0,13,0.00,,CLR,0.00,VWS V14.01,2013-03-02 23:45:00,
2013-03-02 16:50:00,86.5,29.9,17.72,NW,312,0.0,0.0,13,0.00,,CLR,0.00,VWS V14.01,2013-03-02 23:50:00,
2013-03-02 16:55:00,86.7,30.0,17.72,NW,312,0.0,0.0,13,0.00,,CLR,0.00,VWS V14.01,2013-03-02 23:55:00,
2013-03-02 17:00:00,86.7,30.0,17.72,NW,312,0.0,0.0,13,0.00,,CLR,0.00,VWS V14.01,2013-03-03 00:00:00,
2013-03-02 17:05:00,86.2,29.6,17.72,NW,312,0.0,0.0,13,0.00,,CLR,0.00,VWS V14.01,2013-03-03 00:05:00,
2013-03-02 17:10:00,86.0,29.5,17.72,NW,312,0.0,0.0,13,0.00,,CLR,0.00,VWS V14.01,2013-03-03 00:10:00,
2013-03-02 17:16:00,86.0,29.5,17.72,NW,312,0.0,0.0,13,0.00,,CLR,0.00,VWS V14.01,2013-03-03 00:16:00,
2013-03-02 17:21:00,86.2,29.6,17.72,NW,312,0.0,0.0,13,0.00,,CLR,0.00,VWS V14.01,2013-03-03 00:21:00,
2013-03-02 17:26:00,86.4,29.8,17.72,NW,312,0.0,0.0,13,0.00,,CLR,0.00,VWS V14.01,2013-03-03 00:26:00,
2013-03-02 17:31:00,86.2,29.6,17.72,NW,312,0.0,0.0,13,0.00,,CLR,0.00,VWS V14.01,2013-03-03 00:31:00,
2013-03-02 17:36:00,85.6,29.2,17.72,NW,312,0.0,0.0,13,0.00,,CLR,0.00,VWS V14.01,2013-03-03 00:36:00,
2013-03-02 17:41:00,85.5,29.1,17.72,NW,312,0.0,0.0,13,0.00,,CLR,0.00,VWS V14.01,2013-03-03 00:41:00,
2013-03-02 17:46:00,85.3,28.9,17.72,NW,312,0.0,0.0,13,0.00,,CLR,0.00,VWS V14.01,2013-03-03 00:46:00,
2013-03-02 17:51:00,84.6,28.4,17.72,NW,312,0.0,0.0,13,0.00,,CLR,0.00,VWS V14.01,2013-03-03 00:51:00,
2013-03-02 17:56:00,83.3,29.2,17.72,NW,312,0.0,0.0,14,0.00,,CLR,0.00,VWS V14.01,2013-03-03 00:56:00,
2013-03-02 18:02:00,81.7,27.9,17.72,NW,312,0.0,0.0,14,0.00,,CLR,0.00,VWS V14.01,2013-03-03 01:02:00,
2013-03-02 18:07:00,80.8,27.2,17.72,NW,312,0.0,0.0,14,0.00,,CLR,0.00,VWS V14.01,2013-03-03 01:07:00,
2013-03-02 18:12:00,80.2,28.4,17.72,NW,312,0.0,0.0,15,0.00,,CLR,0.00,VWS V14.01,2013-03-03 01:12:00,
2013-03-02 18:18:00,79.3,27.7,17.72,NW,312,0.0,0.0,15,0.00,,CLR,0.00,VWS V14.01,2013-03-03 01:18:00,
2013-03-02 18:24:00,78.4,27.0,17.72,NW,312,0.0,0.0,15,0.00,,CLR,0.00,VWS V14.01,2013-03-03 01:24:00,
2013-03-02 18:29:00,77.7,26.4,17.72,NW,313,0.0,0.0,15,0.00,,CLR,0.00,VWS V14.01,2013-03-03 01:29:00,
2013-03-02 18:34:00,77.0,25.9,17.72,NW,312,0.0,0.0,15,0.00,,CLR,0.00,VWS V14.01,2013-03-03 01:34:00,
2013-03-02 18:39:00,76.5,25.4,17.72,NW,312,0.0,0.0,15,0.00,,CLR,0.00,VWS V14.01,2013-03-03 01:39:00,
2013-03-02 18:45:00,75.7,24.9,17.72,NW,312,0.0,0.0,15,0.00,,CLR,0.00,VWS V14.01,2013-03-03 01:45:00,
2013-03-02 18:50:00,75.4,24.6,17.72,NW,312,0.0,0.0,15,0.00,,CLR,0.00,VWS V14.01,2013-03-03 01:50:00,
2013-03-02 18:55:00,75.0,25.8,17.72,NW,312,0.0,0.0,16,0.00,,CLR,0.00,VWS V14.01,2013-03-03 01:55:00,
2013-03-02 19:00:00,74.8,25.7,17.72,NW,312,0.0,0.0,16,0.00,,CLR,0.00,VWS V14.01,2013-03-03 02:00:00,
2013-03-02 19:05:00,74.7,25.5,17.72,NW,312,0.0,0.0,16,0.00,,CLR,0.00,VWS V14.01,2013-03-03 02:05:00,
2013-03-02 19:11:00,74.3,25.2,17.72,NW,312,0.0,0.0,16,0.00,,CLR,0.00,VWS V14.01,2013-03-03 02:11:00,
2013-03-02 19:17:00,74.3,25.2,17.72,NW,312,0.0,0.0,16,0.00,,CLR,0.00,VWS V14.01,2013-03-03 02:17:00,
2013-03-02 19:22:00,74.1,25.1,17.72,NW,312,0.0,0.0,16,0.00,,CLR,0.00,VWS V14.01,2013-03-03 02:22:00,
2013-03-02 19:27:00,74.1,25.1,17.72,NW,312,0.0,0.0,16,0.00,,CLR,0.00,VWS V14.01,2013-03-03 02:27:00,
2013-03-02 19:32:00,73.8,24.8,17.72,NW,312,0.0,0.0,16,0.00,,CLR,0.00,VWS V14.01,2013-03-03 02:32:00,
2013-03-02 19:38:00,73.6,19.8,17.72,NW,312,0.0,0.0,13,0.00,,CLR,0.00,VWS V14.01,2013-03-03 02:38:00,
2013-03-02 19:43:00,73.4,19.6,17.72,NW,312,0.0,0.0,13,0.00,,CLR,0.00,VWS V14.01,2013-03-03 02:43:00,
2013-03-02 19:48:00,73.4,19.6,17.72,NW,312,0.0,0.0,13,0.00,,CLR,0.00,VWS V14.01,2013-03-03 02:48:00,
2013-03-02 19:53:00,73.4,19.6,17.72,NW,312,0.0,0.0,13,0.00,,CLR,0.00,VWS V14.01,2013-03-03 02:53:00,
2013-03-02 19:58:00,73.2,21.2,17.72,NW,312,0.0,0.0,14,0.00,,CLR,0.00,VWS V14.01,2013-03-03 02:58:00,
2013-03-02 20:03:00,73.2,21.2,17.72,NW,312,0.0,0.0,14,0.00,,CLR,0.00,VWS V14.01,2013-03-03 03:03:00,
2013-03-02 20:08:00,73.0,21.1,17.72,NW,312,0.0,0.0,14,0.00,,CLR,0.00,VWS V14.01,2013-03-03 03:08:00,
2013-03-02 20:14:00,73.0,21.1,17.72,NW,312,0.0,0.0,14,0.00,,CLR,0.00,VWS V14.01,2013-03-03 03:14:00,
2013-03-02 20:19:00,73.0,21.1,17.72,NW,312,0.0,0.0,14,0.00,,CLR,0.00,VWS V14.01,2013-03-03 03:19:00,
2013-03-02 20:24:00,73.0,21.1,17.72,NW,312,0.0,0.0,14,0.00,,CLR,0.00,VWS V14.01,2013-03-03 03:24:00,
2013-03-02 20:29:00,72.9,20.9,17.72,NW,312,0.0,0.0,14,0.00,,CLR,0.00,VWS V14.01,2013-03-03 03:29:00,
2013-03-02 20:34:00,72.5,20.6,17.72,NW,312,0.0,0.0,14,0.00,,CLR,0.00,VWS V14.01,2013-03-03 03:34:00,
2013-03-02 20:39:00,72.3,20.5,17.72,NW,312,0.0,0.0,14,0.00,,CLR,0.00,VWS V14.01,2013-03-03 03:39:00,
2013-03-02 20:44:00,72.0,20.2,17.72,NW,312,0.0,0.0,14,0.00,,CLR,0.00,VWS V14.01,2013-03-03 03:44:00,
2013-03-02 20:49:00,71.6,19.9,17.72,NW,312,0.0,0.0,14,0.00,,CLR,0.00,VWS V14.01,2013-03-03 03:49:00,
2013-03-02 20:54:00,71.4,19.8,17.72,NW,312,0.0,0.0,14,0.00,,CLR,0.00,VWS V14.01,2013-03-03 03:54:00,
2013-03-02 20:59:00,71.2,19.6,17.72,NW,312,0.0,0.0,14,0.00,,CLR,0.00,VWS V14.01,2013-03-03 03:59:00,
2013-03-02 21:04:00,71.1,19.5,17.72,NW,312,0.0,0.0,14,0.00,,CLR,0.00,VWS V14.01,2013-03-03 04:04:00,
2013-03-02 21:09:00,70.9,19.4,17.72,NW,312,0.0,0.0,14,0.00,,CLR,0.00,VWS V14.01,2013-03-03 04:09:00,
2013-03-02 21:14:00,70.7,19.2,17.72,NW,312,0.0,0.0,14,0.00,,CLR,0.00,VWS V14.01,2013-03-03 04:14:00,
2013-03-02 21:20:00,70.5,19.1,17.72,NW,312,0.0,0.0,14,0.00,,CLR,0.00,VWS V14.01,2013-03-03 04:20:00,
2013-03-02 21:26:00,70.2,18.8,17.72,NW,312,0.0,0.0,14,0.00,,CLR,0.00,VWS V14.01,2013-03-03 04:26:00,
2013-03-02 21:31:00,69.6,20.0,17.72,NW,313,0.0,0.0,15,0.00,,CLR,0.00,VWS V14.01,2013-03-03 04:31:00,
2013-03-02 21:36:00,69.3,19.7,17.72,NW,312,0.0,0.0,15,0.00,,CLR,0.00,VWS V14.01,2013-03-03 04:36:00,
2013-03-02 21:41:00,69.3,19.7,17.72,NW,312,0.0,0.0,15,0.00,,CLR,0.00,VWS V14.01,2013-03-03 04:41:00,
2013-03-02 21:46:00,68.9,19.4,17.72,NW,312,0.0,0.0,15,0.00,,CLR,0.00,VWS V14.01,2013-03-03 04:46:00,
2013-03-02 21:51:00,68.5,19.1,17.72,NW,312,0.0,0.0,15,0.00,,CLR,0.00,VWS V14.01,2013-03-03 04:51:00,
2013-03-02 21:56:00,68.4,19.0,17.72,NW,312,0.0,0.0,15,0.00,,CLR,0.00,VWS V14.01,2013-03-03 04:56:00,
2013-03-02 22:00:00,68.0,18.7,17.72,NW,312,0.0,0.0,15,0.00,,CLR,0.00,VWS V14.01,2013-03-03 05:00:00,
2013-03-02 22:01:00,68.0,18.7,17.72,NW,312,0.0,0.0,15,0.00,,CLR,0.00,VWS V14.01,2013-03-03 05:01:00,
2013-03-02 22:04:00,67.8,18.5,17.72,NW,312,0.0,0.0,15,0.00,,CLR,0.00,VWS V14.01,2013-03-03 05:04:00,
2013-03-02 22:09:00,67.1,17.9,17.72,NW,312,0.0,0.0,15,0.00,,CLR,0.00,VWS V14.01,2013-03-03 05:09:00,
2013-03-02 22:14:00,66.9,17.8,17.72,NW,312,0.0,0.0,15,0.00,,CLR,0.00,VWS V14.01,2013-03-03 05:14:00,
2013-03-02 22:19:00,66.7,17.6,17.72,NW,312,0.0,0.0,15,0.00,,CLR,0.00,VWS V14.01,2013-03-03 05:19:00,
2013-03-02 22:21:00,66.9,17.8,17.72,NW,312,0.0,0.0,15,0.00,,CLR,0.00,VWS V14.01,2013-03-03 05:21:00,
2013-03-02 22:26:00,66.9,17.8,17.72,NW,312,0.0,0.0,15,0.00,,CLR,0.00,VWS V14.01,2013-03-03 05:26:00,
2013-03-02 22:31:00,66.9,17.8,17.72,NW,312,0.0,0.0,15,0.00,,CLR,0.00,VWS V14.01,2013-03-03 05:31:00,
2013-03-02 22:36:00,67.1,17.9,17.72,NW,312,0.0,0.0,15,0.00,,CLR,0.00,VWS V14.01,2013-03-03 05:36:00,
2013-03-02 22:41:00,67.5,18.2,17.72,NW,312,0.0,0.0,15,0.00,,CLR,0.00,VWS V14.01,2013-03-03 05:41:00,
2013-03-02 22:46:00,67.1,17.9,17.72,NW,312,0.0,0.0,15,0.00,,CLR,0.00,VWS V14.01,2013-03-03 05:46:00,
2013-03-02 22:51:00,66.6,17.5,17.72,NW,312,0.0,0.0,15,0.00,,CLR,0.00,VWS V14.01,2013-03-03 05:51:00,
2013-03-02 22:56:00,66.0,17.1,17.72,NW,312,0.0,0.0,15,0.00,,CLR,0.00,VWS V14.01,2013-03-03 05:56:00,
2013-03-02 23:01:00,65.5,16.6,17.72,NW,312,0.0,0.0,15,0.00,,CLR,0.00,VWS V14.01,2013-03-03 06:01:00,
2013-03-02 23:06:00,64.9,16.2,17.72,NW,312,0.0,0.0,15,0.00,,CLR,0.00,VWS V14.01,2013-03-03 06:06:00,
2013-03-02 23:11:00,64.4,15.8,17.72,NW,312,0.0,0.0,15,0.00,,CLR,0.00,VWS V14.01,2013-03-03 06:11:00,
2013-03-02 23:16:00,63.9,16.8,17.72,NW,312,0.0,0.0,16,0.00,,CLR,0.00,VWS V14.01,2013-03-03 06:16:00,
2013-03-02 23:21:00,63.3,16.4,17.72,NW,312,0.0,0.0,16,0.00,,CLR,0.00,VWS V14.01,2013-03-03 06:21:00,
2013-03-02 23:26:00,63.0,16.1,17.72,NW,312,0.0,0.0,16,0.00,,CLR,0.00,VWS V14.01,2013-03-03 06:26:00,
2013-03-02 23:31:00,62.6,15.8,17.72,NW,312,0.0,0.0,16,0.00,,CLR,0.00,VWS V14.01,2013-03-03 06:31:00,
2013-03-02 23:36:00,62.4,15.7,17.72,NW,312,0.0,0.0,16,0.00,,CLR,0.00,VWS V14.01,2013-03-03 06:36:00,
2013-03-02 23:41:00,62.2,15.5,17.72,NW,312,0.0,0.0,16,0.00,,CLR,0.00,VWS V14.01,2013-03-03 06:41:00,
2013-03-02 23:46:00,62.1,15.4,17.72,NW,312,0.0,0.0,16,0.00,,CLR,0.00,VWS V14.01,2013-03-03 06:46:00,
2013-03-02 23:51:00,61.9,19.2,17.72,NW,312,0.0,0.0,19,0.00,,CLR,0.00,VWS V14.01,2013-03-03 06:51:00,
2013-03-02 23:56:00,61.5,18.9,17.72,NW,312,0.0,0.0,19,0.00,,CLR,0.00,VWS V14.01,2013-03-03 06:56:00,